Time,TemperatureF,DewpointF,PressureIn,WindDirection,WindDirectionDegrees,WindSpeedMPH,WindSpeedGustMPH,Humidity,HourlyPrecipIn,Conditions,Clouds,dailyrainin,SoftwareType,DateUTC
2013-04-03 00:00:00,41.5,32.5,30.30,SW,216,0.0,0.0,70,0.00,,---,0.00,VWS V14.01,2013-04-03 04:00:00,
2013-04-03 00:05:00,41.5,32.5,30.30,SW,216,0.0,0.0,70,0.00,,---,0.00,VWS V14.01,2013-04-03 04:05:00,
2013-04-03 00:10:00,41.4,32.7,30.30,SW,216,0.0,0.0,71,0.00,,---,0.00,VWS V14.01,2013-04-03 04:10:00,
2013-04-03 00:15:00,41.2,32.5,30.30,SW,216,0.0,0.0,71,0.00,,---,0.00,VWS V14.01,2013-04-03 04:15:00,
2013-04-03 00:20:00,41.0,32.3,30.30,SW,216,0.0,0.0,71,0.00,,---,0.00,VWS V14.01,2013-04-03 04:20:00,
2013-04-03 00:25:00,40.6,32.3,30.30,SW,219,0.0,0.0,72,0.00,,---,0.00,VWS V14.01,2013-04-03 04:25:00,
2013-04-03 00:30:00,40.5,32.2,30.30,West,281,0.0,0.0,72,0.00,,---,0.00,VWS V14.01,2013-04-03 04:30:00,
2013-04-03 00:35:00,40.5,32.5,30.30,West,281,0.0,0.0,73,0.00,,---,0.00,VWS V14.01,2013-04-03 04:35:00,
2013-04-03 00:40:00,40.5,32.5,30.30,West,280,0.0,0.0,73,0.00,,---,0.00,VWS V14.01,2013-04-03 04:40:00,
2013-04-03 00:45:00,40.3,32.3,30.30,West,280,0.0,0.0,73,0.00,,---,0.00,VWS V14.01,2013-04-03 04:45:00,
2013-04-03 00:50:00,40.3,32.7,30.30,West,281,0.0,0.0,74,0.00,,---,0.00,VWS V14.01,2013-04-03 04:50:00,
2013-04-03 00:55:00,40.3,32.7,30.30,West,280,0.0,0.0,74,0.00,,---,0.00,VWS V14.01,2013-04-03 04:55:00,
2013-04-03 01:00:00,40.3,32.7,30.30,West,281,0.0,0.0,74,0.00,,---,0.00,VWS V14.01,2013-04-03 05:00:00,
2013-04-03 01:05:00,40.3,33.0,30.30,West,281,0.0,0.0,75,0.00,,---,0.00,VWS V14.01,2013-04-03 05:05:00,
2013-04-03 01:10:00,40.5,33.2,30.30,West,280,0.0,0.0,75,0.00,,---,0.00,VWS V14.01,2013-04-03 05:10:00,
2013-04-03 01:11:00,40.5,33.2,30.30,West,280,0.0,0.0,75,0.00,,---,0.00,VWS V14.01,2013-04-03 05:11:00,
2013-04-03 01:15:00,40.5,33.2,30.30,West,280,0.0,0.0,75,0.00,,---,0.00,VWS V14.01,2013-04-03 05:15:00,
2013-04-03 01:16:00,40.5,33.2,30.30,West,280,0.0,0.0,75,0.00,,---,0.00,VWS V14.01,2013-04-03 05:16:00,
2013-04-03 01:20:00,40.5,33.2,30.30,West,280,0.0,0.0,75,0.00,,---,0.00,VWS V14.01,2013-04-03 05:20:00,
2013-04-03 01:21:00,40.5,33.2,30.30,West,281,0.0,0.0,75,0.00,,---,0.00,VWS V14.01,2013-04-03 05:21:00,
2013-04-03 01:25:00,40.5,33.2,30.30,West,280,0.0,0.0,75,0.00,,---,0.00,VWS V14.01,2013-04-03 05:25:00,
2013-04-03 01:26:00,40.5,33.2,30.30,West,280,0.0,0.0,75,0.00,,---,0.00,VWS V14.01,2013-04-03 05:26:00,
2013-04-03 01:27:00,40.5,33.2,30.30,West,280,0.0,0.0,75,0.00,,---,0.00,VWS V14.01,2013-04-03 05:27:00,
2013-04-03 01:30:00,40.6,33.3,30.30,West,280,0.0,0.0,75,0.00,,---,0.00,VWS V14.01,2013-04-03 05:30:00,
2013-04-03 01:31:00,40.6,33.3,30.30,West,280,0.0,0.0,75,0.00,,---,0.00,VWS V14.01,2013-04-03 05:31:00,
2013-04-03 01:32:00,40.6,33.3,30.30,West,280,0.0,0.0,75,0.00,,---,0.00,VWS V14.01,2013-04-03 05:32:00,
2013-04-03 01:36:00,40.6,33.3,30.30,West,280,0.0,0.0,75,0.00,,---,0.00,VWS V14.01,2013-04-03 05:36:00,
2013-04-03 01:37:00,40.6,33.3,30.30,West,281,0.0,0.0,75,0.00,,---,0.00,VWS V14.01,2013-04-03 05:37:00,
2013-04-03 01:41:00,40.8,33.8,30.33,West,280,0.0,0.0,76,0.00,,---,0.00,VWS V14.01,2013-04-03 05:41:00,
2013-04-03 01:42:00,40.8,33.8,30.33,West,280,0.0,0.0,76,0.00,,---,0.00,VWS V14.01,2013-04-03 05:42:00,
2013-04-03 01:46:00,41.0,34.0,30.33,West,280,0.0,0.0,76,0.00,,---,0.00,VWS V14.01,2013-04-03 05:46:00,
2013-04-03 01:47:00,41.2,34.2,30.33,West,280,0.0,0.0,76,0.00,,---,0.00,VWS V14.01,2013-04-03 05:47:00,
2013-04-03 01:51:00,41.4,34.4,30.33,West,280,0.0,0.0,76,0.00,,---,0.00,VWS V14.01,2013-04-03 05:51:00,
2013-04-03 01:52:00,41.4,34.4,30.33,West,280,0.0,0.0,76,0.00,,---,0.00,VWS V14.01,2013-04-03 05:52:00,
2013-04-03 01:56:00,41.4,34.0,30.33,West,280,0.0,0.0,75,0.00,,---,0.00,VWS V14.01,2013-04-03 05:56:00,
2013-04-03 01:57:00,41.4,34.0,30.33,West,280,0.0,0.0,75,0.00,,---,0.00,VWS V14.01,2013-04-03 05:57:00,
2013-04-03 02:01:00,41.2,33.9,30.33,West,281,0.0,0.0,75,0.00,,---,0.00,VWS V14.01,2013-04-03 06:01:00,
2013-04-03 02:02:00,41.2,33.9,30.33,West,281,0.0,0.0,75,0.00,,---,0.00,VWS V14.01,2013-04-03 06:02:00,
2013-04-03 02:06:00,41.2,33.9,30.33,West,280,0.0,0.0,75,0.00,,---,0.00,VWS V14.01,2013-04-03 06:06:00,
2013-04-03 02:07:00,41.2,33.9,30.33,West,280,0.0,0.0,75,0.00,,---,0.00,VWS V14.01,2013-04-03 06:07:00,
2013-04-03 02:08:00,41.2,33.9,30.33,West,280,0.0,0.0,75,0.00,,---,0.00,VWS V14.01,2013-04-03 06:08:00,
2013-04-03 02:11:00,41.2,33.9,30.33,West,280,0.0,0.0,75,0.00,,---,0.00,VWS V14.01,2013-04-03 06:11:00,
2013-04-03 02:12:00,41.2,34.2,30.33,West,280,0.0,0.0,76,0.00,,---,0.00,VWS V14.01,2013-04-03 06:12:00,
2013-04-03 02:13:00,41.2,34.2,30.33,West,280,0.0,0.0,76,0.00,,---,0.00,VWS V14.01,2013-04-03 06:13:00,
2013-04-03 02:16:00,41.2,34.2,30.33,West,281,0.0,0.0,76,0.00,,---,0.00,VWS V14.01,2013-04-03 06:16:00,
2013-04-03 02:17:00,41.4,34.7,30.33,West,281,0.0,0.0,77,0.00,,---,0.00,VWS V14.01,2013-04-03 06:17:00,
2013-04-03 02:18:00,41.4,34.7,30.33,West,281,0.0,0.0,77,0.00,,---,0.00,VWS V14.01,2013-04-03 06:18:00,
2013-04-03 02:21:00,41.4,34.7,30.33,West,280,0.0,0.0,77,0.00,,---,0.00,VWS V14.01,2013-04-03 06:21:00,
2013-04-03 02:23:00,41.5,34.9,30.33,West,280,0.0,0.0,77,0.00,,---,0.00,VWS V14.01,2013-04-03 06:23:00,
2013-04-03 02:26:00,41.5,34.9,30.33,West,281,0.0,0.0,77,0.00,,---,0.00,VWS V14.01,2013-04-03 06:26:00,
2013-04-03 02:28:00,41.7,35.0,30.33,West,281,0.0,0.0,77,0.00,,---,0.00,VWS V14.01,2013-04-03 06:28:00,
2013-04-03 02:31:00,41.9,35.5,30.33,West,281,0.0,0.0,78,0.00,,---,0.00,VWS V14.01,2013-04-03 06:31:00,
2013-04-03 02:33:00,41.9,35.5,30.33,West,280,0.0,0.0,78,0.00,,---,0.00,VWS V14.01,2013-04-03 06:33:00,
2013-04-03 02:37:00,42.1,35.7,30.33,West,281,0.0,0.0,78,0.00,,---,0.00,VWS V14.01,2013-04-03 06:37:00,
2013-04-03 02:38:00,42.1,35.7,30.33,West,281,0.0,0.0,78,0.00,,---,0.00,VWS V14.01,2013-04-03 06:38:00,
2013-04-03 02:42:00,42.6,36.2,30.33,West,280,0.0,0.0,78,0.00,,---,0.00,VWS V14.01,2013-04-03 06:42:00,
2013-04-03 02:43:00,42.6,36.2,30.33,West,280,0.0,0.0,78,0.00,,---,0.00,VWS V14.01,2013-04-03 06:43:00,
2013-04-03 02:47:00,42.8,36.4,30.33,West,280,0.0,0.0,78,0.00,,---,0.00,VWS V14.01,2013-04-03 06:47:00,
2013-04-03 02:48:00,42.8,36.4,30.33,West,280,0.0,0.0,78,0.00,,---,0.00,VWS V14.01,2013-04-03 06:48:00,
2013-04-03 02:52:00,42.8,36.4,30.33,NNW,335,0.0,0.0,78,0.00,,---,0.00,VWS V14.01,2013-04-03 06:52:00,
2013-04-03 02:53:00,42.8,36.4,30.33,NNW,336,0.0,0.0,78,0.00,,---,0.00,VWS V14.01,2013-04-03 06:53:00,
2013-04-03 02:57:00,43.0,36.6,30.33,NW,326,0.0,0.0,78,0.00,,---,0.00,VWS V14.01,2013-04-03 06:57:00,
2013-04-03 02:58:00,43.0,36.6,30.33,NW,326,0.0,0.0,78,0.00,,---,0.00,VWS V14.01,2013-04-03 06:58:00,
2013-04-03 02:59:00,43.0,36.6,30.33,NW,326,0.0,0.0,78,0.00,,---,0.00,VWS V14.01,2013-04-03 06:59:00,
2013-04-03 03:02:00,43.3,37.0,30.33,NW,326,0.0,0.0,78,0.00,,---,0.00,VWS V14.01,2013-04-03 07:02:00,
2013-04-03 03:03:00,43.3,37.0,30.33,NW,326,0.0,0.0,78,0.00,,---,0.00,VWS V14.01,2013-04-03 07:03:00,
2013-04-03 03:04:00,43.3,37.0,30.33,NW,326,0.0,0.0,78,0.00,,---,0.00,VWS V14.01,2013-04-03 07:04:00,
2013-04-03 03:07:00,43.3,37.0,30.33,NW,325,0.0,0.0,78,0.00,,---,0.00,VWS V14.01,2013-04-03 07:07:00,
2013-04-03 03:08:00,43.3,37.0,30.33,NW,305,0.0,0.0,78,0.00,,---,0.00,VWS V14.01,2013-04-03 07:08:00,
2013-04-03 03:09:00,43.5,37.5,30.33,NW,305,0.0,0.0,79,0.00,,---,0.00,VWS V14.01,2013-04-03 07:09:00,
2013-04-03 03:12:00,43.7,38.0,30.33,NW,309,0.0,0.0,80,0.00,,---,0.00,VWS V14.01,2013-04-03 07:12:00,
2013-04-03 03:13:00,43.7,38.0,30.33,NW,309,0.0,0.0,80,0.00,,---,0.00,VWS V14.01,2013-04-03 07:13:00,
2013-04-03 03:14:00,44.1,38.6,30.33,WNW,296,0.0,0.0,81,0.00,,---,0.00,VWS V14.01,2013-04-03 07:14:00,
2013-04-03 03:17:00,44.1,38.6,30.33,NW,326,0.0,0.0,81,0.00,,---,0.00,VWS V14.01,2013-04-03 07:17:00,
2013-04-03 03:18:00,44.1,38.6,30.33,NW,326,2.2,2.2,81,0.00,,---,0.00,VWS V14.01,2013-04-03 07:18:00,
2013-04-03 03:19:00,44.1,38.6,30.33,NW,326,2.2,2.2,81,0.00,,---,0.00,VWS V14.01,2013-04-03 07:19:00,
2013-04-03 03:22:00,44.6,39.1,30.33,NNW,345,2.7,2.7,81,0.00,,---,0.00,VWS V14.01,2013-04-03 07:22:00,
2013-04-03 03:23:00,44.6,39.1,30.33,NNW,337,3.1,3.1,81,0.00,,---,0.00,VWS V14.01,2013-04-03 07:23:00,
2013-04-03 03:24:00,44.6,39.1,30.33,NNW,334,2.7,3.1,81,0.00,,---,0.00,VWS V14.01,2013-04-03 07:24:00,
2013-04-03 03:27:00,45.1,40.0,30.33,North,357,2.7,3.6,82,0.00,,---,0.00,VWS V14.01,2013-04-03 07:27:00,
2013-04-03 03:28:00,45.1,40.0,30.33,North,357,2.7,2.7,82,0.00,,---,0.00,VWS V14.01,2013-04-03 07:28:00,
2013-04-03 03:29:00,45.3,39.8,30.33,NW,319,4.0,4.0,81,0.00,,---,0.00,VWS V14.01,2013-04-03 07:29:00,
2013-04-03 03:33:00,45.3,39.8,30.33,NNW,327,0.0,0.0,81,0.00,,---,0.00,VWS V14.01,2013-04-03 07:33:00,
2013-04-03 03:34:00,45.3,39.8,30.33,NNW,327,0.0,0.0,81,0.00,,---,0.00,VWS V14.01,2013-04-03 07:34:00,
2013-04-03 03:38:00,45.5,40.0,30.33,NNW,342,2.7,4.0,81,0.00,,---,0.00,VWS V14.01,2013-04-03 07:38:00,
2013-04-03 03:39:00,45.5,40.0,30.33,NNW,333,3.6,3.6,81,0.00,,---,0.00,VWS V14.01,2013-04-03 07:39:00,
2013-04-03 03:43:00,45.5,40.0,30.33,NNW,330,3.1,3.1,81,0.00,,---,0.00,VWS V14.01,2013-04-03 07:43:00,
2013-04-03 03:44:00,45.5,40.0,30.33,NNW,327,4.0,4.0,81,0.00,,---,0.00,VWS V14.01,2013-04-03 07:44:00,
2013-04-03 03:45:00,45.5,40.0,30.33,North,353,4.9,4.9,81,0.00,,---,0.00,VWS V14.01,2013-04-03 07:45:00,
2013-04-03 03:48:00,45.5,40.0,30.33,NW,311,4.0,4.0,81,0.00,,---,0.00,VWS V14.01,2013-04-03 07:48:00,
2013-04-03 03:49:00,45.5,40.0,30.33,NW,311,4.0,4.0,81,0.00,,---,0.00,VWS V14.01,2013-04-03 07:49:00,
2013-04-03 03:50:00,45.5,40.0,30.33,North,353,3.6,3.6,81,0.00,,---,0.00,VWS V14.01,2013-04-03 07:50:00,
2013-04-03 03:53:00,45.5,40.0,30.33,NNW,344,4.0,4.0,81,0.00,,---,0.00,VWS V14.01,2013-04-03 07:53:00,
2013-04-03 03:54:00,45.5,40.0,30.33,NNW,344,4.0,4.0,81,0.00,,---,0.00,VWS V14.01,2013-04-03 07:54:00,
2013-04-03 03:55:00,45.7,40.5,30.33,North,353,4.9,4.9,82,0.00,,---,0.00,VWS V14.01,2013-04-03 07:55:00,
2013-04-03 03:58:00,45.7,40.5,30.33,NNW,340,2.7,2.7,82,0.00,,---,0.00,VWS V14.01,2013-04-03 07:58:00,
2013-04-03 03:59:00,45.7,40.5,30.33,NNW,340,2.7,2.7,82,0.00,,---,0.00,VWS V14.01,2013-04-03 07:59:00,
2013-04-03 04:00:00,45.7,40.5,30.33,NNW,340,2.7,2.7,82,0.00,,---,0.00,VWS V14.01,2013-04-03 08:00:00,
2013-04-03 04:04:00,45.9,41.0,30.33,NNW,346,6.3,6.3,83,0.00,,---,0.00,VWS V14.01,2013-04-03 08:04:00,
2013-04-03 04:05:00,45.9,41.0,30.33,NNW,338,3.1,3.1,83,0.00,,---,0.00,VWS V14.01,2013-04-03 08:05:00,
2013-04-03 04:09:00,45.9,41.0,30.33,NNW,341,4.0,5.4,83,0.00,,---,0.00,VWS V14.01,2013-04-03 08:09:00,
2013-04-03 04:11:00,46.0,41.2,30.33,NNW,329,5.4,5.4,83,0.00,,---,0.00,VWS V14.01,2013-04-03 08:11:00,
2013-04-03 04:14:00,46.0,41.2,30.33,NNW,348,3.6,3.6,83,0.00,,---,0.00,VWS V14.01,2013-04-03 08:14:00,
2013-04-03 04:16:00,46.0,41.2,30.33,North,357,3.1,3.1,83,0.00,,---,0.00,VWS V14.01,2013-04-03 08:16:00,
2013-04-03 04:19:00,46.2,41.3,30.33,NNW,342,3.1,3.1,83,0.00,,---,0.00,VWS V14.01,2013-04-03 08:19:00,
2013-04-03 04:21:00,46.4,41.5,30.33,NNW,342,3.1,3.1,83,0.00,,---,0.00,VWS V14.01,2013-04-03 08:21:00,
2013-04-03 04:24:00,46.6,41.7,30.33,North,349,5.4,5.4,83,0.00,,---,0.00,VWS V14.01,2013-04-03 08:24:00,
2013-04-03 04:25:00,46.6,41.7,30.33,WNW,302,4.0,4.0,83,0.00,,---,0.00,VWS V14.01,2013-04-03 08:25:00,
2013-04-03 04:29:00,46.6,41.7,30.33,NNW,348,4.5,4.5,83,0.00,,---,0.00,VWS V14.01,2013-04-03 08:29:00,
2013-04-03 04:31:00,46.8,41.6,30.33,North,353,3.1,4.5,82,0.00,,---,0.00,VWS V14.01,2013-04-03 08:31:00,
2013-04-03 04:34:00,46.9,41.7,30.33,WNW,300,3.6,4.9,82,0.00,,---,0.00,VWS V14.01,2013-04-03 08:34:00,
2013-04-03 04:36:00,46.9,41.7,30.33,North,0,3.1,3.1,82,0.00,,---,0.00,VWS V14.01,2013-04-03 08:36:00,
2013-04-03 04:39:00,46.9,41.7,30.33,NW,309,4.0,4.0,82,0.00,,---,0.00,VWS V14.01,2013-04-03 08:39:00,
2013-04-03 04:41:00,47.1,41.9,30.33,North,353,2.2,2.2,82,0.00,,---,0.00,VWS V14.01,2013-04-03 08:41:00,
2013-04-03 04:44:00,47.1,41.9,30.33,NNW,339,5.4,5.4,82,0.00,,---,0.00,VWS V14.01,2013-04-03 08:44:00,
2013-04-03 04:46:00,47.3,42.1,30.33,NW,321,2.2,3.6,82,0.00,,---,0.00,VWS V14.01,2013-04-03 08:46:00,
2013-04-03 04:49:00,47.3,41.8,30.33,NW,325,3.1,3.1,81,0.00,,---,0.00,VWS V14.01,2013-04-03 08:49:00,
2013-04-03 04:50:00,47.3,41.8,30.33,NW,325,3.1,3.1,81,0.00,,---,0.00,VWS V14.01,2013-04-03 08:50:00,
2013-04-03 04:51:00,47.3,41.8,30.33,NNW,333,2.7,3.1,81,0.00,,---,0.00,VWS V14.01,2013-04-03 08:51:00,
2013-04-03 04:54:00,47.3,41.8,30.33,NNW,343,4.0,4.0,81,0.00,,---,0.00,VWS V14.01,2013-04-03 08:54:00,
2013-04-03 04:55:00,47.3,41.8,30.33,NNW,331,0.0,4.0,81,0.00,,---,0.00,VWS V14.01,2013-04-03 08:55:00,
2013-04-03 04:56:00,47.5,41.6,30.33,NNW,328,2.7,5.8,80,0.00,,---,0.00,VWS V14.01,2013-04-03 08:56:00,
2013-04-03 04:59:00,47.5,41.3,30.33,NNW,341,4.0,4.0,79,0.00,,---,0.00,VWS V14.01,2013-04-03 08:59:00,
2013-04-03 05:00:00,47.5,41.3,30.33,NNW,341,4.0,4.0,79,0.00,,---,0.00,VWS V14.01,2013-04-03 09:00:00,
2013-04-03 05:02:00,47.5,41.0,30.33,NNW,338,3.6,3.6,78,0.00,,---,0.00,VWS V14.01,2013-04-03 09:02:00,
2013-04-03 05:04:00,47.5,41.0,30.33,NNW,348,2.7,2.7,78,0.00,,---,0.00,VWS V14.01,2013-04-03 09:04:00,
2013-04-03 05:05:00,47.5,40.6,30.33,NNW,339,2.7,2.7,77,0.00,,---,0.00,VWS V14.01,2013-04-03 09:05:00,
2013-04-03 05:07:00,47.5,40.6,30.33,North,353,4.0,4.0,77,0.00,,---,0.00,VWS V14.01,2013-04-03 09:07:00,
2013-04-03 05:09:00,47.5,40.3,30.33,NNW,333,4.9,4.9,76,0.00,,---,0.00,VWS V14.01,2013-04-03 09:09:00,
2013-04-03 05:10:00,47.5,40.3,30.33,NW,322,3.6,3.6,76,0.00,,---,0.00,VWS V14.01,2013-04-03 09:10:00,
2013-04-03 05:12:00,47.5,40.3,30.33,NNW,342,2.7,4.0,76,0.00,,---,0.00,VWS V14.01,2013-04-03 09:12:00,
2013-04-03 05:14:00,47.5,40.3,30.33,NNW,327,2.7,2.7,76,0.00,,---,0.00,VWS V14.01,2013-04-03 09:14:00,
2013-04-03 05:15:00,47.5,40.3,30.33,NNW,329,2.7,2.7,76,0.00,,---,0.00,VWS V14.01,2013-04-03 09:15:00,
2013-04-03 05:17:00,47.5,40.0,30.33,North,0,2.7,2.7,75,0.00,,---,0.00,VWS V14.01,2013-04-03 09:17:00,
2013-04-03 05:19:00,47.5,39.6,30.33,NW,316,0.0,0.0,74,0.00,,---,0.00,VWS V14.01,2013-04-03 09:19:00,
2013-04-03 05:20:00,47.5,39.6,30.33,NW,315,0.0,0.0,74,0.00,,---,0.00,VWS V14.01,2013-04-03 09:20:00,
2013-04-03 05:22:00,47.5,39.6,30.33,NW,310,2.7,2.7,74,0.00,,---,0.00,VWS V14.01,2013-04-03 09:22:00,
2013-04-03 05:24:00,47.3,39.5,30.33,NNW,328,3.6,3.6,74,0.00,,---,0.00,VWS V14.01,2013-04-03 09:24:00,
2013-04-03 05:25:00,47.3,39.5,30.33,NW,321,2.2,2.7,74,0.00,,---,0.00,VWS V14.01,2013-04-03 09:25:00,
2013-04-03 05:27:00,47.3,39.5,30.33,NNW,329,2.7,3.6,74,0.00,,---,0.00,VWS V14.01,2013-04-03 09:27:00,
2013-04-03 05:29:00,47.3,39.1,30.33,NW,308,3.1,3.1,73,0.00,,---,0.00,VWS V14.01,2013-04-03 09:29:00,
2013-04-03 05:30:00,47.3,39.1,30.33,NW,308,3.1,3.1,73,0.00,,---,0.00,VWS V14.01,2013-04-03 09:30:00,
2013-04-03 05:32:00,47.3,39.1,30.33,NW,320,2.7,2.7,73,0.00,,---,0.00,VWS V14.01,2013-04-03 09:32:00,
2013-04-03 05:34:00,47.3,39.1,30.33,NNW,348,0.0,0.0,73,0.00,,---,0.00,VWS V14.01,2013-04-03 09:34:00,
2013-04-03 05:35:00,47.3,39.1,30.33,North,357,0.0,0.0,73,0.00,,---,0.00,VWS V14.01,2013-04-03 09:35:00,
2013-04-03 05:37:00,47.3,38.7,30.36,North,357,0.0,0.0,72,0.00,,---,0.00,VWS V14.01,2013-04-03 09:37:00,
2013-04-03 05:39:00,47.3,38.7,30.36,North,0,4.0,4.0,72,0.00,,---,0.00,VWS V14.01,2013-04-03 09:39:00,
2013-04-03 05:40:00,47.3,38.7,30.36,NNW,343,3.1,3.1,72,0.00,,---,0.00,VWS V14.01,2013-04-03 09:40:00,
2013-04-03 05:42:00,47.3,38.7,30.36,WNW,298,4.0,4.0,72,0.00,,---,0.00,VWS V14.01,2013-04-03 09:42:00,
2013-04-03 05:44:00,47.3,38.7,30.36,WNW,290,2.7,2.7,72,0.00,,---,0.00,VWS V14.01,2013-04-03 09:44:00,
2013-04-03 05:45:00,47.3,38.7,30.36,NNE,17,2.7,3.1,72,0.00,,---,0.00,VWS V14.01,2013-04-03 09:45:00,
2013-04-03 05:46:00,47.3,38.7,30.36,NNE,17,2.7,3.1,72,0.00,,---,0.00,VWS V14.01,2013-04-03 09:46:00,
2013-04-03 05:47:00,47.3,38.7,30.36,NW,320,3.1,4.0,72,0.00,,---,0.00,VWS V14.01,2013-04-03 09:47:00,
2013-04-03 05:49:00,47.3,38.7,30.36,NNW,327,0.0,2.7,72,0.00,,---,0.00,VWS V14.01,2013-04-03 09:49:00,
2013-04-03 05:50:00,47.3,38.7,30.36,NNW,334,0.0,2.7,72,0.00,,---,0.00,VWS V14.01,2013-04-03 09:50:00,
2013-04-03 05:51:00,47.3,38.7,30.36,NNW,334,0.0,2.7,72,0.00,,---,0.00,VWS V14.01,2013-04-03 09:51:00,
2013-04-03 05:53:00,47.3,38.4,30.36,North,11,4.0,4.0,71,0.00,,---,0.00,VWS V14.01,2013-04-03 09:53:00,
2013-04-03 05:54:00,47.3,38.4,30.36,North,353,3.6,3.6,71,0.00,,---,0.00,VWS V14.01,2013-04-03 09:54:00,
2013-04-03 05:55:00,47.3,38.4,30.36,NNW,328,3.6,3.6,71,0.00,,---,0.00,VWS V14.01,2013-04-03 09:55:00,
2013-04-03 05:56:00,47.3,38.4,30.36,NNW,334,4.0,4.0,71,0.00,,---,0.00,VWS V14.01,2013-04-03 09:56:00,
2013-04-03 05:58:00,47.3,38.0,30.36,NNW,332,3.6,4.0,70,0.00,,---,0.00,VWS V14.01,2013-04-03 09:58:00,
2013-04-03 05:59:00,47.3,38.0,30.36,North,0,3.1,5.4,70,0.00,,---,0.00,VWS V14.01,2013-04-03 09:59:00,
2013-04-03 06:00:00,47.3,38.0,30.36,NW,326,6.3,6.3,70,0.00,,---,0.00,VWS V14.01,2013-04-03 10:00:00,
2013-04-03 06:01:00,47.3,38.0,30.36,NW,326,6.3,6.3,70,0.00,,---,0.00,VWS V14.01,2013-04-03 10:01:00,
2013-04-03 06:03:00,47.5,38.2,30.36,NNW,333,2.7,2.7,70,0.00,,---,0.00,VWS V14.01,2013-04-03 10:03:00,
2013-04-03 06:05:00,47.5,38.2,30.36,NNW,327,3.1,3.1,70,0.00,,---,0.00,VWS V14.01,2013-04-03 10:05:00,
2013-04-03 06:06:00,47.5,38.2,30.36,NNW,327,3.1,3.1,70,0.00,,---,0.00,VWS V14.01,2013-04-03 10:06:00,
2013-04-03 06:08:00,47.5,38.2,30.36,North,6,4.9,4.9,70,0.00,,---,0.00,VWS V14.01,2013-04-03 10:08:00,
2013-04-03 06:10:00,47.5,38.2,30.36,North,3,4.9,4.9,70,0.00,,---,0.00,VWS V14.01,2013-04-03 10:10:00,
2013-04-03 06:11:00,47.7,37.6,30.36,North,3,4.9,4.9,68,0.00,,---,0.00,VWS V14.01,2013-04-03 10:11:00,
2013-04-03 06:13:00,47.7,37.3,30.36,North,0,0.0,0.0,67,0.00,,---,0.00,VWS V14.01,2013-04-03 10:13:00,
2013-04-03 06:15:00,47.7,36.9,30.36,NNW,340,3.1,4.0,66,0.00,,---,0.00,VWS V14.01,2013-04-03 10:15:00,
2013-04-03 06:16:00,47.7,36.9,30.36,NNW,340,3.1,3.1,66,0.00,,---,0.00,VWS V14.01,2013-04-03 10:16:00,
2013-04-03 06:18:00,47.8,36.7,30.36,NNW,333,4.0,4.0,65,0.00,,---,0.00,VWS V14.01,2013-04-03 10:18:00,
2013-04-03 06:20:00,47.8,36.7,30.36,NNW,345,4.0,4.0,65,0.00,,---,0.00,VWS V14.01,2013-04-03 10:20:00,
2013-04-03 06:21:00,47.8,36.7,30.36,NNW,345,4.9,4.9,65,0.00,,---,0.00,VWS V14.01,2013-04-03 10:21:00,
2013-04-03 06:23:00,47.8,36.7,30.36,NW,321,2.7,2.7,65,0.00,,---,0.00,VWS V14.01,2013-04-03 10:23:00,
2013-04-03 06:25:00,48.0,35.2,30.36,NNW,335,3.6,3.6,61,0.00,,---,0.00,VWS V14.01,2013-04-03 10:25:00,
2013-04-03 06:26:00,48.0,35.2,30.36,NNW,340,5.8,5.8,61,0.00,,---,0.00,VWS V14.01,2013-04-03 10:26:00,
2013-04-03 06:27:00,48.0,35.2,30.36,NNW,340,5.8,5.8,61,0.00,,---,0.00,VWS V14.01,2013-04-03 10:27:00,
2013-04-03 06:28:00,48.0,35.2,30.36,North,357,4.9,5.8,61,0.00,,---,0.00,VWS V14.01,2013-04-03 10:28:00,
2013-04-03 06:30:00,48.0,35.2,30.36,NNE,17,3.6,4.9,61,0.00,,---,0.00,VWS V14.01,2013-04-03 10:30:00,
2013-04-03 06:32:00,48.0,35.2,30.36,NNW,343,5.4,5.4,61,0.00,,---,0.00,VWS V14.01,2013-04-03 10:32:00,
2013-04-03 06:33:00,48.2,33.7,30.36,NNW,329,2.7,5.4,57,0.00,,---,0.00,VWS V14.01,2013-04-03 10:33:00,
2013-04-03 06:35:00,48.2,33.3,30.33,NNW,329,2.7,2.7,56,0.00,,---,0.00,VWS V14.01,2013-04-03 10:35:00,
2013-04-03 06:37:00,48.4,33.0,30.33,NNW,331,6.7,6.7,55,0.00,,---,0.00,VWS V14.01,2013-04-03 10:37:00,
2013-04-03 06:38:00,48.4,33.0,30.33,NW,325,4.0,4.0,55,0.00,,---,0.00,VWS V14.01,2013-04-03 10:38:00,
2013-04-03 06:40:00,48.4,33.0,30.33,NNE,12,4.0,4.5,55,0.00,,---,0.00,VWS V14.01,2013-04-03 10:40:00,
2013-04-03 06:42:00,48.4,33.0,30.33,North,0,6.3,6.3,55,0.00,,---,0.00,VWS V14.01,2013-04-03 10:42:00,
2013-04-03 06:43:00,48.4,33.0,30.33,NNW,331,3.1,3.1,55,0.00,,---,0.00,VWS V14.01,2013-04-03 10:43:00,
2013-04-03 06:45:00,48.4,33.0,30.33,North,0,7.6,7.6,55,0.00,,---,0.00,VWS V14.01,2013-04-03 10:45:00,
2013-04-03 06:47:00,48.6,31.8,30.33,NNW,342,3.6,3.6,52,0.00,,---,0.00,VWS V14.01,2013-04-03 10:47:00,
2013-04-03 06:48:00,48.6,31.8,30.33,NNW,342,3.6,3.6,52,0.00,,---,0.00,VWS V14.01,2013-04-03 10:48:00,
2013-04-03 06:50:00,48.6,31.8,30.36,North,353,7.2,7.2,52,0.00,,---,0.00,VWS V14.01,2013-04-03 10:50:00,
2013-04-03 06:52:00,48.6,30.8,30.36,NNE,33,8.1,8.1,50,0.00,,---,0.00,VWS V14.01,2013-04-03 10:52:00,
2013-04-03 06:53:00,48.6,30.8,30.36,NNE,33,8.1,8.1,50,0.00,,---,0.00,VWS V14.01,2013-04-03 10:53:00,
2013-04-03 06:55:00,48.6,30.8,30.36,North,2,6.3,6.3,50,0.00,,---,0.00,VWS V14.01,2013-04-03 10:55:00,
2013-04-03 06:57:00,48.6,29.8,30.36,NNW,336,5.4,6.3,48,0.00,,---,0.00,VWS V14.01,2013-04-03 10:57:00,
2013-04-03 06:58:00,48.7,29.9,30.36,NNW,336,5.4,5.4,48,0.00,,---,0.00,VWS V14.01,2013-04-03 10:58:00,
2013-04-03 07:00:00,48.7,29.9,30.36,NNW,331,7.2,8.3,48,0.00,,---,0.00,VWS V14.01,2013-04-03 11:00:00,
2013-04-03 07:02:00,48.7,29.9,30.36,NNW,331,7.2,7.2,48,0.00,,---,0.00,VWS V14.01,2013-04-03 11:02:00,
2013-04-03 07:03:00,48.7,29.9,30.36,NNW,331,7.2,7.2,48,0.00,,---,0.00,VWS V14.01,2013-04-03 11:03:00,
2013-04-03 07:05:00,48.7,29.9,30.36,NNW,331,7.2,7.2,48,0.00,,---,0.00,VWS V14.01,2013-04-03 11:05:00,
2013-04-03 07:07:00,48.7,29.9,30.36,NNW,343,4.0,4.0,48,0.00,,---,0.00,VWS V14.01,2013-04-03 11:07:00,
2013-04-03 07:08:00,48.7,29.9,30.36,NNW,332,7.6,7.6,48,0.00,,---,0.00,VWS V14.01,2013-04-03 11:08:00,
2013-04-03 07:10:00,48.6,28.2,30.36,North,7,8.3,8.3,45,0.00,,---,0.00,VWS V14.01,2013-04-03 11:10:00,
2013-04-03 07:12:00,48.6,28.2,30.36,North,6,6.3,6.3,45,0.00,,---,0.00,VWS V14.01,2013-04-03 11:12:00,
2013-04-03 07:13:00,48.6,28.2,30.36,NNE,22,5.4,6.3,45,0.00,,---,0.00,VWS V14.01,2013-04-03 11:13:00,
2013-04-03 07:15:00,48.6,28.2,30.36,NW,316,6.3,6.3,45,0.00,,---,0.00,VWS V14.01,2013-04-03 11:15:00,
2013-04-03 07:17:00,48.6,28.2,30.36,NW,319,8.7,8.7,45,0.00,,---,0.00,VWS V14.01,2013-04-03 11:17:00,
2013-04-03 07:18:00,48.6,28.2,30.36,North,353,5.8,8.7,45,0.00,,---,0.00,VWS V14.01,2013-04-03 11:18:00,
2013-04-03 07:20:00,48.6,27.1,30.36,NNW,338,4.9,6.3,43,0.00,,---,0.00,VWS V14.01,2013-04-03 11:20:00,
2013-04-03 07:22:00,48.4,26.4,30.36,NNW,341,8.7,8.7,42,0.00,,---,0.00,VWS V14.01,2013-04-03 11:22:00,
2013-04-03 07:23:00,48.4,26.4,30.36,NNW,341,8.7,8.7,42,0.00,,---,0.00,VWS V14.01,2013-04-03 11:23:00,
2013-04-03 07:24:00,48.4,26.4,30.36,NNW,341,8.7,8.7,42,0.00,,---,0.00,VWS V14.01,2013-04-03 11:24:00,
2013-04-03 07:26:00,48.4,26.4,30.36,North,357,3.1,5.8,42,0.00,,---,0.00,VWS V14.01,2013-04-03 11:26:00,
2013-04-03 07:27:00,48.4,25.8,30.36,North,353,2.7,3.6,41,0.00,,---,0.00,VWS V14.01,2013-04-03 11:27:00,
2013-04-03 07:28:00,48.4,25.8,30.36,North,353,2.7,3.6,41,0.00,,---,0.00,VWS V14.01,2013-04-03 11:28:00,
2013-04-03 07:29:00,48.4,25.8,30.36,NNE,25,5.8,5.8,41,0.00,,---,0.00,VWS V14.01,2013-04-03 11:29:00,
2013-04-03 07:31:00,48.4,25.8,30.36,NW,325,5.4,7.6,41,0.00,,---,0.00,VWS V14.01,2013-04-03 11:31:00,
2013-04-03 07:32:00,48.4,25.8,30.36,North,357,5.4,5.4,41,0.00,,---,0.00,VWS V14.01,2013-04-03 11:32:00,
2013-04-03 07:33:00,48.4,25.8,30.36,North,353,4.0,5.4,41,0.00,,---,0.00,VWS V14.01,2013-04-03 11:33:00,
2013-04-03 07:34:00,48.4,25.8,30.36,North,353,4.0,6.7,41,0.00,,---,0.00,VWS V14.01,2013-04-03 11:34:00,
2013-04-03 07:36:00,48.2,25.0,30.36,NW,317,4.0,4.0,40,0.00,,---,0.00,VWS V14.01,2013-04-03 11:36:00,
2013-04-03 07:37:00,48.2,25.0,30.36,NW,313,3.6,3.6,40,0.00,,---,0.00,VWS V14.01,2013-04-03 11:37:00,
2013-04-03 07:38:00,48.2,25.0,30.36,NW,313,3.6,3.6,40,0.00,,---,0.00,VWS V14.01,2013-04-03 11:38:00,
2013-04-03 07:39:00,48.2,25.0,30.36,NNE,25,3.1,3.1,40,0.00,,---,0.00,VWS V14.01,2013-04-03 11:39:00,
2013-04-03 07:41:00,48.2,25.0,30.36,NNW,345,3.6,3.6,40,0.00,,---,0.00,VWS V14.01,2013-04-03 11:41:00,
2013-04-03 07:43:00,48.2,25.0,30.36,NNW,345,3.6,3.6,40,0.00,,---,0.00,VWS V14.01,2013-04-03 11:43:00,
2013-04-03 07:44:00,48.0,24.3,30.36,North,353,7.6,7.6,39,0.00,,---,0.00,VWS V14.01,2013-04-03 11:44:00,
2013-04-03 07:46:00,48.0,24.3,30.36,NNE,12,8.1,8.1,39,0.00,,---,0.00,VWS V14.01,2013-04-03 11:46:00,
2013-04-03 07:48:00,48.0,24.3,30.36,North,357,4.0,4.0,39,0.00,,---,0.00,VWS V14.01,2013-04-03 11:48:00,
2013-04-03 07:49:00,48.0,24.3,30.36,NNE,29,8.1,8.1,39,0.00,,---,0.00,VWS V14.01,2013-04-03 11:49:00,
2013-04-03 07:51:00,48.0,24.3,30.36,North,2,6.3,6.3,39,0.00,,---,0.00,VWS V14.01,2013-04-03 11:51:00,
2013-04-03 07:53:00,48.0,24.3,30.36,NW,317,7.6,7.6,39,0.00,,---,0.00,VWS V14.01,2013-04-03 11:53:00,
2013-04-03 07:54:00,47.8,24.1,30.39,NW,317,7.6,7.6,39,0.00,,---,0.00,VWS V14.01,2013-04-03 11:54:00,
2013-04-03 07:56:00,47.8,24.1,30.39,NW,317,7.6,7.6,39,0.00,,---,0.00,VWS V14.01,2013-04-03 11:56:00,
2013-04-03 07:58:00,47.8,24.1,30.39,NNW,345,6.3,7.6,39,0.00,,---,0.00,VWS V14.01,2013-04-03 11:58:00,
2013-04-03 07:59:00,47.8,24.1,30.39,North,3,5.4,6.3,39,0.00,,---,0.00,VWS V14.01,2013-04-03 11:59:00,
2013-04-03 08:01:00,47.8,24.1,30.39,North,3,4.0,4.0,39,0.00,,---,0.00,VWS V14.01,2013-04-03 12:01:00,
2013-04-03 08:03:00,47.7,23.9,30.39,North,3,4.0,4.0,39,0.00,,---,0.00,VWS V14.01,2013-04-03 12:03:00,
2013-04-03 08:04:00,47.7,23.9,30.39,North,3,4.0,4.0,39,0.00,,---,0.00,VWS V14.01,2013-04-03 12:04:00,
2013-04-03 08:07:00,47.7,23.9,30.39,NE,53,5.8,5.8,39,0.00,,---,0.00,VWS V14.01,2013-04-03 12:07:00,
2013-04-03 08:08:00,47.7,23.9,30.39,NE,53,5.8,5.8,39,0.00,,---,0.00,VWS V14.01,2013-04-03 12:08:00,
2013-04-03 08:09:00,47.7,23.9,30.39,NNW,348,5.4,7.6,39,0.00,,---,0.00,VWS V14.01,2013-04-03 12:09:00,
2013-04-03 08:12:00,47.5,23.2,30.39,North,357,10.5,10.5,38,0.00,,---,0.00,VWS V14.01,2013-04-03 12:12:00,
2013-04-03 08:13:00,47.5,23.2,30.39,North,357,10.5,10.5,38,0.00,,---,0.00,VWS V14.01,2013-04-03 12:13:00,
2013-04-03 08:14:00,47.5,23.2,30.39,NNW,328,5.8,5.8,38,0.00,,---,0.00,VWS V14.01,2013-04-03 12:14:00,
2013-04-03 08:17:00,47.5,23.2,30.39,North,0,5.4,5.4,38,0.00,,---,0.00,VWS V14.01,2013-04-03 12:17:00,
2013-04-03 08:18:00,47.5,23.2,30.39,North,0,5.4,5.4,38,0.00,,---,0.00,VWS V14.01,2013-04-03 12:18:00,
2013-04-03 08:19:00,47.5,23.2,30.39,North,0,5.8,5.8,38,0.00,,---,0.00,VWS V14.01,2013-04-03 12:19:00,
2013-04-03 08:22:00,47.5,23.2,30.39,NNW,341,4.0,4.0,38,0.00,,---,0.00,VWS V14.01,2013-04-03 12:22:00,
2013-04-03 08:23:00,47.5,23.2,30.39,NNW,341,4.0,4.0,38,0.00,,---,0.00,VWS V14.01,2013-04-03 12:23:00,
2013-04-03 08:24:00,47.5,23.2,30.39,NE,35,6.3,6.3,38,0.00,,---,0.00,VWS V14.01,2013-04-03 12:24:00,
2013-04-03 08:27:00,47.5,23.2,30.39,North,353,5.4,5.4,38,0.00,,---,0.00,VWS V14.01,2013-04-03 12:27:00,
2013-04-03 08:28:00,47.5,23.2,30.39,NNW,340,6.3,6.3,38,0.00,,---,0.00,VWS V14.01,2013-04-03 12:28:00,
2013-04-03 08:29:00,47.5,23.2,30.39,NE,50,7.6,7.6,38,0.00,,---,0.00,VWS V14.01,2013-04-03 12:29:00,
2013-04-03 08:32:00,47.3,23.0,30.39,NE,50,7.6,7.6,38,0.00,,---,0.00,VWS V14.01,2013-04-03 12:32:00,
2013-04-03 08:33:00,47.3,23.0,30.39,NW,323,6.3,6.3,38,0.00,,---,0.00,VWS V14.01,2013-04-03 12:33:00,
2013-04-03 08:34:00,47.3,23.0,30.39,North,357,8.3,8.3,38,0.00,,---,0.00,VWS V14.01,2013-04-03 12:34:00,
2013-04-03 08:37:00,47.3,23.0,30.39,NE,51,5.8,5.8,38,0.00,,---,0.00,VWS V14.01,2013-04-03 12:37:00,
2013-04-03 08:38:00,47.3,23.0,30.39,NNW,334,8.7,8.7,38,0.00,,---,0.00,VWS V14.01,2013-04-03 12:38:00,
2013-04-03 08:39:00,47.3,23.0,30.39,North,0,8.1,8.7,38,0.00,,---,0.00,VWS V14.01,2013-04-03 12:39:00,
2013-04-03 08:43:00,47.3,23.0,30.39,NNW,337,2.7,8.1,38,0.00,,---,0.00,VWS V14.01,2013-04-03 12:43:00,
2013-04-03 08:44:00,47.3,23.0,30.39,NNW,343,3.6,3.6,38,0.00,,---,0.00,VWS V14.01,2013-04-03 12:44:00,
2013-04-03 08:48:00,47.1,22.8,30.39,NNW,327,8.1,9.2,38,0.00,,---,0.00,VWS V14.01,2013-04-03 12:48:00,
2013-04-03 08:49:00,47.1,22.8,30.39,NNW,327,8.1,9.2,38,0.00,,---,0.00,VWS V14.01,2013-04-03 12:49:00,
2013-04-03 08:53:00,47.1,22.8,30.39,North,357,3.6,3.6,38,0.00,,---,0.00,VWS V14.01,2013-04-03 12:53:00,
2013-04-03 08:54:00,47.1,22.8,30.39,NNW,331,5.8,5.8,38,0.00,,---,0.00,VWS V14.01,2013-04-03 12:54:00,
2013-04-03 08:58:00,47.1,22.8,30.39,NNW,331,5.8,5.8,38,0.00,,---,0.00,VWS V14.01,2013-04-03 12:58:00,
2013-04-03 08:59:00,47.1,22.8,30.39,NNW,331,5.8,5.8,38,0.00,,---,0.00,VWS V14.01,2013-04-03 12:59:00,
2013-04-03 09:03:00,47.1,22.8,30.39,North,0,5.4,5.4,38,0.00,,---,0.00,VWS V14.01,2013-04-03 13:03:00,
2013-04-03 09:04:00,47.1,22.8,30.39,NNW,337,4.9,5.4,38,0.00,,---,0.00,VWS V14.01,2013-04-03 13:04:00,
2013-04-03 09:08:00,47.1,22.8,30.39,North,357,5.8,5.8,38,0.00,,---,0.00,VWS V14.01,2013-04-03 13:08:00,
2013-04-03 09:09:00,47.1,22.8,30.39,North,357,5.8,5.8,38,0.00,,---,0.00,VWS V14.01,2013-04-03 13:09:00,
2013-04-03 09:13:00,46.9,22.7,30.39,North,357,6.3,6.3,38,0.00,,---,0.00,VWS V14.01,2013-04-03 13:13:00,
2013-04-03 09:14:00,46.9,22.7,30.39,North,353,5.8,8.1,38,0.00,,---,0.00,VWS V14.01,2013-04-03 13:14:00,
2013-04-03 09:18:00,46.9,23.3,30.39,NE,55,3.1,3.1,39,0.00,,---,0.00,VWS V14.01,2013-04-03 13:18:00,
2013-04-03 09:19:00,47.1,23.5,30.39,NE,55,3.1,3.1,39,0.00,,---,0.00,VWS V14.01,2013-04-03 13:19:00,
2013-04-03 09:20:00,47.1,23.5,30.42,NE,55,3.1,3.1,39,0.00,,---,0.00,VWS V14.01,2013-04-03 13:20:00,
2013-04-03 09:23:00,47.1,23.5,30.42,NNW,335,3.6,3.6,39,0.00,,---,0.00,VWS V14.01,2013-04-03 13:23:00,
2013-04-03 09:24:00,47.1,23.5,30.42,NNW,335,3.6,3.6,39,0.00,,---,0.00,VWS V14.01,2013-04-03 13:24:00,
2013-04-03 09:25:00,47.1,23.5,30.42,North,0,5.4,5.8,39,0.00,,---,0.00,VWS V14.01,2013-04-03 13:25:00,
2013-04-03 09:28:00,47.1,23.5,30.42,NW,325,4.0,4.0,39,0.00,,---,0.00,VWS V14.01,2013-04-03 13:28:00,
2013-04-03 09:29:00,47.1,23.5,30.42,WNW,293,8.7,12.3,39,0.00,,---,0.00,VWS V14.01,2013-04-03 13:29:00,
2013-04-03 09:30:00,47.1,23.5,30.42,NNE,20,6.3,6.3,39,0.00,,---,0.00,VWS V14.01,2013-04-03 13:30:00,
2013-04-03 09:33:00,47.1,23.5,30.42,NNE,25,5.4,5.4,39,0.00,,---,0.00,VWS V14.01,2013-04-03 13:33:00,
2013-04-03 09:34:00,47.1,23.5,30.42,NNE,25,5.4,5.4,39,0.00,,---,0.00,VWS V14.01,2013-04-03 13:34:00,
2013-04-03 09:35:00,47.1,23.5,30.42,NNE,25,5.4,5.4,39,0.00,,---,0.00,VWS V14.01,2013-04-03 13:35:00,
2013-04-03 09:38:00,47.1,23.5,30.42,NNW,340,6.3,6.3,39,0.00,,---,0.00,VWS V14.01,2013-04-03 13:38:00,
2013-04-03 09:39:00,47.1,23.5,30.42,NNW,340,6.3,6.3,39,0.00,,---,0.00,VWS V14.01,2013-04-03 13:39:00,
2013-04-03 09:40:00,47.1,23.5,30.42,NNE,25,7.6,7.6,39,0.00,,---,0.00,VWS V14.01,2013-04-03 13:40:00,
2013-04-03 09:43:00,47.1,23.5,30.42,NE,38,7.6,7.6,39,0.00,,---,0.00,VWS V14.01,2013-04-03 13:43:00,
2013-04-03 09:44:00,47.1,23.5,30.42,NE,38,7.6,7.6,39,0.00,,---,0.00,VWS V14.01,2013-04-03 13:44:00,
2013-04-03 09:45:00,47.1,23.5,30.42,NE,38,7.6,7.6,39,0.00,,---,0.00,VWS V14.01,2013-04-03 13:45:00,
2013-04-03 09:48:00,47.1,23.5,30.42,North,4,4.9,4.9,39,0.00,,---,0.00,VWS V14.01,2013-04-03 13:48:00,
2013-04-03 09:49:00,47.1,23.5,30.42,North,4,4.9,4.9,39,0.00,,---,0.00,VWS V14.01,2013-04-03 13:49:00,
2013-04-03 09:50:00,47.1,23.5,30.42,North,4,4.9,4.9,39,0.00,,---,0.00,VWS V14.01,2013-04-03 13:50:00,
2013-04-03 09:53:00,47.3,24.2,30.42,North,4,4.9,4.9,40,0.00,,---,0.00,VWS V14.01,2013-04-03 13:53:00,
2013-04-03 09:54:00,47.3,24.2,30.42,North,4,4.9,4.9,40,0.00,,---,0.00,VWS V14.01,2013-04-03 13:54:00,
2013-04-03 09:55:00,47.3,24.2,30.42,North,4,4.9,4.9,40,0.00,,---,0.00,VWS V14.01,2013-04-03 13:55:00,
2013-04-03 09:58:00,47.3,24.2,30.42,North,6,5.4,5.4,40,0.00,,---,0.00,VWS V14.01,2013-04-03 13:58:00,
2013-04-03 09:59:00,47.3,24.2,30.42,North,6,5.4,5.4,40,0.00,,---,0.00,VWS V14.01,2013-04-03 13:59:00,
2013-04-03 10:01:00,47.3,24.2,30.42,North,6,5.4,5.4,40,0.00,,---,0.00,VWS V14.01,2013-04-03 14:01:00,
2013-04-03 10:03:00,47.3,24.2,30.42,North,6,8.1,8.1,40,0.00,,---,0.00,VWS V14.01,2013-04-03 14:03:00,
2013-04-03 10:04:00,47.3,24.2,30.42,North,6,8.1,8.1,40,0.00,,---,0.00,VWS V14.01,2013-04-03 14:04:00,
2013-04-03 10:06:00,47.3,24.2,30.42,North,6,8.1,8.1,40,0.00,,---,0.00,VWS V14.01,2013-04-03 14:06:00,
2013-04-03 10:08:00,47.3,24.2,30.42,ENE,66,3.6,3.6,40,0.00,,---,0.00,VWS V14.01,2013-04-03 14:08:00,
2013-04-03 10:09:00,47.3,24.8,30.42,ENE,66,3.6,3.6,41,0.00,,---,0.00,VWS V14.01,2013-04-03 14:09:00,
2013-04-03 10:11:00,47.3,24.8,30.42,NNW,345,5.4,5.4,41,0.00,,---,0.00,VWS V14.01,2013-04-03 14:11:00,
2013-04-03 10:13:00,47.3,24.8,30.42,NW,318,10.1,10.1,41,0.00,,---,0.00,VWS V14.01,2013-04-03 14:13:00,
2013-04-03 10:14:00,47.3,24.8,30.42,NW,318,10.1,10.1,41,0.00,,---,0.00,VWS V14.01,2013-04-03 14:14:00,
2013-04-03 10:17:00,47.3,24.8,30.42,North,0,5.8,5.8,41,0.00,,---,0.00,VWS V14.01,2013-04-03 14:17:00,
2013-04-03 10:18:00,47.3,24.8,30.42,NNW,329,6.7,6.7,41,0.00,,---,0.00,VWS V14.01,2013-04-03 14:18:00,
2013-04-03 10:19:00,47.3,24.8,30.42,NNW,329,6.7,6.7,41,0.00,,---,0.00,VWS V14.01,2013-04-03 14:19:00,
2013-04-03 10:22:00,47.3,24.8,30.42,North,349,5.4,5.4,41,0.00,,---,0.00,VWS V14.01,2013-04-03 14:22:00,
2013-04-03 10:23:00,47.3,24.8,30.42,North,357,9.2,9.2,41,0.00,,---,0.00,VWS V14.01,2013-04-03 14:23:00,
2013-04-03 10:24:00,47.3,24.8,30.42,North,357,5.4,5.4,41,0.00,,---,0.00,VWS V14.01,2013-04-03 14:24:00,
2013-04-03 10:25:00,47.3,24.8,30.42,North,357,5.4,5.4,41,0.00,,---,0.00,VWS V14.01,2013-04-03 14:25:00,
2013-04-03 10:27:00,47.3,25.4,30.42,ENE,65,2.7,5.4,42,0.00,,---,0.00,VWS V14.01,2013-04-03 14:27:00,
2013-04-03 10:28:00,47.3,25.4,30.42,North,4,4.0,4.0,42,0.00,,---,0.00,VWS V14.01,2013-04-03 14:28:00,
2013-04-03 10:29:00,47.3,25.4,30.42,North,4,4.0,4.0,42,0.00,,---,0.00,VWS V14.01,2013-04-03 14:29:00,
2013-04-03 10:30:00,47.3,25.4,30.42,North,4,4.0,4.0,42,0.00,,---,0.00,VWS V14.01,2013-04-03 14:30:00,
2013-04-03 10:32:00,47.3,25.4,30.42,ENE,59,4.9,4.9,42,0.00,,---,0.00,VWS V14.01,2013-04-03 14:32:00,
2013-04-03 10:33:00,47.3,25.4,30.42,WNW,286,4.0,4.9,42,0.00,,---,0.00,VWS V14.01,2013-04-03 14:33:00,
2013-04-03 10:34:00,47.3,25.4,30.42,WNW,286,4.0,4.0,42,0.00,,---,0.00,VWS V14.01,2013-04-03 14:34:00,
2013-04-03 10:35:00,47.3,25.4,30.42,NW,324,5.4,5.4,42,0.00,,---,0.00,VWS V14.01,2013-04-03 14:35:00,
2013-04-03 10:37:00,47.3,25.4,30.42,NW,306,3.1,3.1,42,0.00,,---,0.00,VWS V14.01,2013-04-03 14:37:00,
2013-04-03 10:39:00,47.3,25.4,30.42,North,11,3.6,3.6,42,0.00,,---,0.00,VWS V14.01,2013-04-03 14:39:00,
2013-04-03 10:40:00,47.3,25.4,30.42,NNW,327,4.0,4.0,42,0.00,,---,0.00,VWS V14.01,2013-04-03 14:40:00,
2013-04-03 10:42:00,47.3,25.4,30.42,NNW,335,4.9,4.9,42,0.00,,---,0.00,VWS V14.01,2013-04-03 14:42:00,
2013-04-03 10:44:00,47.3,25.4,30.42,NNW,332,3.1,3.1,42,0.00,,---,0.00,VWS V14.01,2013-04-03 14:44:00,
2013-04-03 10:45:00,47.5,26.1,30.42,West,265,4.9,4.9,43,0.00,,---,0.00,VWS V14.01,2013-04-03 14:45:00,
2013-04-03 10:47:00,47.5,26.1,30.42,NNW,332,3.1,3.1,43,0.00,,---,0.00,VWS V14.01,2013-04-03 14:47:00,
2013-04-03 10:49:00,47.5,26.1,30.42,NNW,335,3.1,3.1,43,0.00,,---,0.00,VWS V14.01,2013-04-03 14:49:00,
2013-04-03 10:50:00,47.5,26.1,30.42,ENE,76,0.0,0.0,43,0.00,,---,0.00,VWS V14.01,2013-04-03 14:50:00,
2013-04-03 10:52:00,47.5,26.1,30.42,NE,52,3.1,3.1,43,0.00,,---,0.00,VWS V14.01,2013-04-03 14:52:00,
2013-04-03 10:54:00,47.7,26.3,30.42,NE,55,3.6,3.6,43,0.00,,---,0.00,VWS V14.01,2013-04-03 14:54:00,
2013-04-03 10:55:00,47.7,26.3,30.42,NE,55,3.6,3.6,43,0.00,,---,0.00,VWS V14.01,2013-04-03 14:55:00,
2013-04-03 10:57:00,47.7,25.7,30.42,NW,319,4.9,4.9,42,0.00,,---,0.00,VWS V14.01,2013-04-03 14:57:00,
2013-04-03 10:59:00,47.7,25.7,30.42,NW,319,4.9,4.9,42,0.00,,---,0.00,VWS V14.01,2013-04-03 14:59:00,
2013-04-03 11:00:00,47.7,25.7,30.42,NW,326,3.1,3.1,42,0.00,,---,0.00,VWS V14.01,2013-04-03 15:00:00,
2013-04-03 11:02:00,47.7,25.7,30.42,North,10,2.7,2.7,42,0.00,,---,0.00,VWS V14.01,2013-04-03 15:02:00,
2013-04-03 11:04:00,47.7,25.7,30.42,NE,56,2.7,2.7,42,0.00,,---,0.00,VWS V14.01,2013-04-03 15:04:00,
2013-04-03 11:05:00,47.7,25.7,30.42,NNW,348,2.2,2.7,42,0.00,,---,0.00,VWS V14.01,2013-04-03 15:05:00,
2013-04-03 11:07:00,47.7,25.7,30.42,NNW,331,4.5,4.5,42,0.00,,---,0.00,VWS V14.01,2013-04-03 15:07:00,
2013-04-03 11:09:00,47.7,25.7,30.42,NW,307,3.1,3.1,42,0.00,,---,0.00,VWS V14.01,2013-04-03 15:09:00,
2013-04-03 11:10:00,48.2,25.0,30.42,NE,35,4.0,4.0,40,0.00,,---,0.00,VWS V14.01,2013-04-03 15:10:00,
2013-04-03 11:12:00,48.2,25.0,30.42,NW,325,6.3,7.6,40,0.00,,---,0.00,VWS V14.01,2013-04-03 15:12:00,
2013-04-03 11:14:00,48.2,25.0,30.42,NNE,23,5.8,5.8,40,0.00,,---,0.00,VWS V14.01,2013-04-03 15:14:00,
2013-04-03 11:15:00,48.2,25.0,30.42,North,353,7.6,7.6,40,0.00,,---,0.00,VWS V14.01,2013-04-03 15:15:00,
2013-04-03 11:18:00,48.4,24.6,30.42,North,353,7.6,7.6,39,0.00,,---,0.00,VWS V14.01,2013-04-03 15:18:00,
2013-04-03 11:19:00,48.4,24.6,30.42,North,353,7.6,7.6,39,0.00,,---,0.00,VWS V14.01,2013-04-03 15:19:00,
2013-04-03 11:20:00,48.4,24.6,30.42,NNE,28,2.2,7.6,39,0.00,,---,0.00,VWS V14.01,2013-04-03 15:20:00,
2013-04-03 11:23:00,48.7,24.9,30.42,NE,39,3.6,4.0,39,0.00,,---,0.00,VWS V14.01,2013-04-03 15:23:00,
2013-04-03 11:24:00,48.7,24.9,30.42,NNW,341,4.9,4.9,39,0.00,,---,0.00,VWS V14.01,2013-04-03 15:24:00,
2013-04-03 11:25:00,48.7,24.9,30.42,NNW,341,4.9,4.9,39,0.00,,---,0.00,VWS V14.01,2013-04-03 15:25:00,
2013-04-03 11:26:00,48.7,24.9,30.42,NNE,27,2.2,4.9,39,0.00,,---,0.00,VWS V14.01,2013-04-03 15:26:00,
2013-04-03 11:28:00,48.7,24.9,30.42,NW,306,2.2,4.9,39,0.00,,---,0.00,VWS V14.01,2013-04-03 15:28:00,
2013-04-03 11:29:00,48.7,24.9,30.42,NE,34,4.0,4.0,39,0.00,,---,0.00,VWS V14.01,2013-04-03 15:29:00,
2013-04-03 11:30:00,48.7,24.9,30.42,NE,34,4.0,4.0,39,0.00,,---,0.00,VWS V14.01,2013-04-03 15:30:00,
2013-04-03 11:31:00,48.9,24.5,30.42,NE,34,4.0,4.0,38,0.00,,---,0.00,VWS V14.01,2013-04-03 15:31:00,
2013-04-03 11:33:00,48.9,24.5,30.42,NE,50,6.3,6.3,38,0.00,,---,0.00,VWS V14.01,2013-04-03 15:33:00,
2013-04-03 11:34:00,48.9,24.5,30.45,NE,53,3.6,4.0,38,0.00,,---,0.00,VWS V14.01,2013-04-03 15:34:00,
2013-04-03 11:35:00,48.9,24.5,30.45,NE,53,3.6,3.6,38,0.00,,---,0.00,VWS V14.01,2013-04-03 15:35:00,
2013-04-03 11:36:00,48.9,24.5,30.45,NNE,27,4.0,4.0,38,0.00,,---,0.00,VWS V14.01,2013-04-03 15:36:00,
2013-04-03 11:38:00,49.1,24.6,30.45,NNE,29,4.0,4.0,38,0.00,,---,0.00,VWS V14.01,2013-04-03 15:38:00,
2013-04-03 11:39:00,49.1,24.6,30.45,East,93,5.4,5.4,38,0.00,,---,0.00,VWS V14.01,2013-04-03 15:39:00,
2013-04-03 11:40:00,49.1,24.6,30.45,East,93,5.4,5.4,38,0.00,,---,0.00,VWS V14.01,2013-04-03 15:40:00,
2013-04-03 11:41:00,49.1,24.6,30.45,NNE,23,8.1,8.1,38,0.00,,---,0.00,VWS V14.01,2013-04-03 15:41:00,
2013-04-03 11:43:00,49.1,24.6,30.45,NE,46,8.1,8.1,38,0.00,,---,0.00,VWS V14.01,2013-04-03 15:43:00,
2013-04-03 11:44:00,49.1,24.6,30.45,NE,34,8.7,8.7,38,0.00,,---,0.00,VWS V14.01,2013-04-03 15:44:00,
2013-04-03 11:45:00,49.1,24.6,30.45,NE,34,8.7,8.7,38,0.00,,---,0.00,VWS V14.01,2013-04-03 15:45:00,
2013-04-03 11:46:00,49.1,24.6,30.45,WNW,300,6.3,6.3,38,0.00,,---,0.00,VWS V14.01,2013-04-03 15:46:00,
2013-04-03 11:48:00,49.1,24.6,30.45,WNW,296,5.8,5.8,38,0.00,,---,0.00,VWS V14.01,2013-04-03 15:48:00,
2013-04-03 11:49:00,49.1,24.6,30.45,NNE,15,5.8,5.8,38,0.00,,---,0.00,VWS V14.01,2013-04-03 15:49:00,
2013-04-03 11:50:00,49.1,24.6,30.45,North,353,8.1,8.1,38,0.00,,---,0.00,VWS V14.01,2013-04-03 15:50:00,
2013-04-03 11:51:00,48.9,24.5,30.45,North,353,8.1,8.1,38,0.00,,---,0.00,VWS V14.01,2013-04-03 15:51:00,
2013-04-03 11:53:00,48.9,24.5,30.45,NNE,25,5.8,8.1,38,0.00,,---,0.00,VWS V14.01,2013-04-03 15:53:00,
2013-04-03 11:54:00,48.9,24.5,30.45,NNE,20,3.6,4.0,38,0.00,,---,0.00,VWS V14.01,2013-04-03 15:54:00,
2013-04-03 11:55:00,48.9,24.5,30.45,NW,306,4.0,4.0,38,0.00,,---,0.00,VWS V14.01,2013-04-03 15:55:00,
2013-04-03 11:56:00,48.9,24.5,30.45,NE,42,5.8,5.8,38,0.00,,---,0.00,VWS V14.01,2013-04-03 15:56:00,
2013-04-03 11:58:00,48.9,24.5,30.45,NW,325,5.4,5.8,38,0.00,,---,0.00,VWS V14.01,2013-04-03 15:58:00,
2013-04-03 11:59:00,48.9,24.5,30.45,ENE,68,7.6,7.6,38,0.00,,---,0.00,VWS V14.01,2013-04-03 15:59:00,
2013-04-03 12:01:00,48.9,24.5,30.45,NNE,33,5.8,5.8,38,0.00,,---,0.00,VWS V14.01,2013-04-03 16:01:00,
2013-04-03 12:03:00,48.9,24.5,30.45,NE,34,3.1,3.1,38,0.00,,---,0.00,VWS V14.01,2013-04-03 16:03:00,
2013-04-03 12:04:00,48.9,24.5,30.45,NE,34,3.1,3.1,38,0.00,,---,0.00,VWS V14.01,2013-04-03 16:04:00,
2013-04-03 12:07:00,48.9,24.5,30.45,NE,55,7.6,7.6,38,0.00,,---,0.00,VWS V14.01,2013-04-03 16:07:00,
2013-04-03 12:08:00,48.9,24.5,30.45,NE,55,7.6,7.6,38,0.00,,---,0.00,VWS V14.01,2013-04-03 16:08:00,
2013-04-03 12:09:00,48.9,24.5,30.45,NE,55,7.6,7.6,38,0.00,,---,0.00,VWS V14.01,2013-04-03 16:09:00,
2013-04-03 12:12:00,48.9,24.5,30.42,NE,51,2.7,4.9,38,0.00,,---,0.00,VWS V14.01,2013-04-03 16:12:00,
2013-04-03 12:13:00,48.9,24.5,30.42,North,357,5.4,5.4,38,0.00,,---,0.00,VWS V14.01,2013-04-03 16:13:00,
2013-04-03 12:15:00,48.9,24.5,30.42,NNE,15,4.9,5.4,38,0.00,,---,0.00,VWS V14.01,2013-04-03 16:15:00,
2013-04-03 12:17:00,49.3,24.8,30.42,NNE,15,4.9,4.9,38,0.00,,---,0.00,VWS V14.01,2013-04-03 16:17:00,
2013-04-03 12:18:00,49.3,24.8,30.42,NNE,15,4.9,4.9,38,0.00,,---,0.00,VWS V14.01,2013-04-03 16:18:00,
2013-04-03 12:20:00,49.3,24.8,30.42,NE,34,2.7,2.7,38,0.00,,---,0.00,VWS V14.01,2013-04-03 16:20:00,
2013-04-03 12:22:00,49.3,24.8,30.42,NW,326,5.4,5.4,38,0.00,,---,0.00,VWS V14.01,2013-04-03 16:22:00,
2013-04-03 12:24:00,49.1,24.6,30.42,WNW,289,8.1,8.1,38,0.00,,---,0.00,VWS V14.01,2013-04-03 16:24:00,
2013-04-03 12:25:00,49.1,24.6,30.42,ENE,67,5.4,8.1,38,0.00,,---,0.00,VWS V14.01,2013-04-03 16:25:00,
2013-04-03 12:27:00,49.1,24.6,30.42,North,6,3.6,5.4,38,0.00,,---,0.00,VWS V14.01,2013-04-03 16:27:00,
2013-04-03 12:28:00,49.1,24.6,30.42,North,6,3.6,5.4,38,0.00,,---,0.00,VWS V14.01,2013-04-03 16:28:00,
2013-04-03 12:29:00,49.1,24.6,30.42,North,6,3.6,3.6,38,0.00,,---,0.00,VWS V14.01,2013-04-03 16:29:00,
2013-04-03 12:30:00,49.1,24.6,30.42,NW,320,5.8,5.8,38,0.00,,---,0.00,VWS V14.01,2013-04-03 16:30:00,
2013-04-03 12:32:00,49.1,24.6,30.42,NNW,333,2.2,2.2,38,0.00,,---,0.00,VWS V14.01,2013-04-03 16:32:00,
2013-04-03 12:33:00,49.1,24.6,30.42,North,2,2.7,2.7,38,0.00,,---,0.00,VWS V14.01,2013-04-03 16:33:00,
2013-04-03 12:34:00,49.1,24.6,30.42,North,2,2.7,2.7,38,0.00,,---,0.00,VWS V14.01,2013-04-03 16:34:00,
2013-04-03 12:35:00,49.1,24.6,30.42,North,2,2.7,2.7,38,0.00,,---,0.00,VWS V14.01,2013-04-03 16:35:00,
2013-04-03 12:37:00,49.3,24.8,30.45,North,2,2.7,2.7,38,0.00,,---,0.00,VWS V14.01,2013-04-03 16:37:00,
2013-04-03 12:38:00,49.3,24.8,30.45,NE,34,8.3,8.3,38,0.00,,---,0.00,VWS V14.01,2013-04-03 16:38:00,
2013-04-03 12:39:00,49.3,24.8,30.45,ENE,62,5.8,5.8,38,0.00,,---,0.00,VWS V14.01,2013-04-03 16:39:00,
2013-04-03 12:40:00,49.3,24.8,30.45,ENE,62,5.8,5.8,38,0.00,,---,0.00,VWS V14.01,2013-04-03 16:40:00,
2013-04-03 12:42:00,49.3,24.8,30.45,NE,35,6.3,6.3,38,0.00,,---,0.00,VWS V14.01,2013-04-03 16:42:00,
2013-04-03 12:43:00,49.3,24.8,30.45,NE,35,6.3,6.3,38,0.00,,---,0.00,VWS V14.01,2013-04-03 16:43:00,
2013-04-03 12:45:00,49.3,24.8,30.45,NE,35,6.3,6.3,38,0.00,,---,0.00,VWS V14.01,2013-04-03 16:45:00,
2013-04-03 12:48:00,49.3,24.8,30.45,NNW,346,2.7,4.0,38,0.00,,---,0.00,VWS V14.01,2013-04-03 16:48:00,
2013-04-03 12:50:00,49.3,24.8,30.45,NNE,29,2.2,2.2,38,0.00,,---,0.00,VWS V14.01,2013-04-03 16:50:00,
2013-04-03 12:53:00,49.5,24.9,30.45,NNE,29,2.2,2.2,38,0.00,,---,0.00,VWS V14.01,2013-04-03 16:53:00,
2013-04-03 12:55:00,49.5,24.9,30.45,NNE,20,2.2,2.2,38,0.00,,---,0.00,VWS V14.01,2013-04-03 16:55:00,
2013-04-03 12:58:00,49.5,24.9,30.45,North,353,0.0,0.0,38,0.00,,---,0.00,VWS V14.01,2013-04-03 16:58:00,
2013-04-03 13:00:00,49.8,25.2,30.45,NW,313,5.4,5.4,38,0.00,,---,0.00,VWS V14.01,2013-04-03 17:00:00,
2013-04-03 13:03:00,49.8,25.2,30.45,North,7,8.1,8.1,38,0.00,,---,0.00,VWS V14.01,2013-04-03 17:03:00,
2013-04-03 13:05:00,49.8,25.2,30.45,NNE,12,5.8,5.8,38,0.00,,---,0.00,VWS V14.01,2013-04-03 17:05:00,
2013-04-03 13:08:00,49.8,25.2,30.45,North,7,4.0,4.0,38,0.00,,---,0.00,VWS V14.01,2013-04-03 17:08:00,
2013-04-03 13:09:00,49.8,25.2,30.45,NW,315,3.1,3.1,38,0.00,,---,0.00,VWS V14.01,2013-04-03 17:09:00,
2013-04-03 13:10:00,49.8,25.2,30.45,NNE,15,6.3,6.3,38,0.00,,---,0.00,VWS V14.01,2013-04-03 17:10:00,
2013-04-03 13:13:00,50.0,24.8,30.45,NE,39,4.0,4.0,37,0.00,,---,0.00,VWS V14.01,2013-04-03 17:13:00,
2013-04-03 13:14:00,50.2,24.9,30.45,ENE,62,4.0,4.0,37,0.00,,---,0.00,VWS V14.01,2013-04-03 17:14:00,
2013-04-03 13:15:00,50.2,24.9,30.45,ENE,62,4.0,4.0,37,0.00,,---,0.00,VWS V14.01,2013-04-03 17:15:00,
2013-04-03 13:16:00,50.2,24.9,30.45,ENE,62,4.0,4.0,37,0.00,,---,0.00,VWS V14.01,2013-04-03 17:16:00,
2013-04-03 13:18:00,50.4,25.1,30.45,NE,56,3.1,4.0,37,0.00,,---,0.00,VWS V14.01,2013-04-03 17:18:00,
2013-04-03 13:19:00,50.4,25.1,30.45,NE,42,8.1,8.1,37,0.00,,---,0.00,VWS V14.01,2013-04-03 17:19:00,
2013-04-03 13:21:00,50.4,25.1,30.45,NE,42,8.1,8.1,37,0.00,,---,0.00,VWS V14.01,2013-04-03 17:21:00,
2013-04-03 13:24:00,50.4,25.1,30.45,North,11,5.4,5.4,37,0.00,,---,0.00,VWS V14.01,2013-04-03 17:24:00,
2013-04-03 13:25:00,50.4,25.1,30.45,NE,55,3.1,3.1,37,0.00,,---,0.00,VWS V14.01,2013-04-03 17:25:00,
2013-04-03 13:26:00,50.4,25.1,30.45,North,4,4.9,4.9,37,0.00,,---,0.00,VWS V14.01,2013-04-03 17:26:00,
2013-04-03 13:29:00,50.7,25.4,30.45,North,0,3.1,3.1,37,0.00,,---,0.00,VWS V14.01,2013-04-03 17:29:00,
2013-04-03 13:31:00,50.7,25.4,30.45,NE,55,6.3,6.3,37,0.00,,---,0.00,VWS V14.01,2013-04-03 17:31:00,
2013-04-03 13:34:00,50.9,25.6,30.45,NNE,29,7.6,7.6,37,0.00,,---,0.00,VWS V14.01,2013-04-03 17:34:00,
2013-04-03 13:35:00,50.9,25.6,30.45,North,2,4.0,7.6,37,0.00,,---,0.00,VWS V14.01,2013-04-03 17:35:00,
2013-04-03 13:36:00,50.9,25.6,30.45,North,2,4.0,4.0,37,0.00,,---,0.00,VWS V14.01,2013-04-03 17:36:00,
2013-04-03 13:39:00,50.9,25.6,30.42,ESE,106,5.8,5.8,37,0.00,,---,0.00,VWS V14.01,2013-04-03 17:39:00,
2013-04-03 13:40:00,50.9,25.6,30.42,SSE,165,4.9,5.8,37,0.00,,---,0.00,VWS V14.01,2013-04-03 17:40:00,
2013-04-03 13:41:00,50.9,25.6,30.42,ENE,64,4.0,4.0,37,0.00,,---,0.00,VWS V14.01,2013-04-03 17:41:00,
2013-04-03 13:42:00,50.9,25.6,30.42,ENE,58,5.8,5.8,37,0.00,,---,0.00,VWS V14.01,2013-04-03 17:42:00,
2013-04-03 13:45:00,51.1,25.7,30.42,NE,52,5.4,5.8,37,0.00,,---,0.00,VWS V14.01,2013-04-03 17:45:00,
2013-04-03 13:46:00,51.1,25.7,30.42,NNE,23,3.6,3.6,37,0.00,,---,0.00,VWS V14.01,2013-04-03 17:46:00,
2013-04-03 13:47:00,51.1,25.7,30.42,North,5,3.1,3.1,37,0.00,,---,0.00,VWS V14.01,2013-04-03 17:47:00,
2013-04-03 13:50:00,51.1,25.7,30.42,East,83,4.9,4.9,37,0.00,,---,0.00,VWS V14.01,2013-04-03 17:50:00,
2013-04-03 13:51:00,51.1,25.7,30.42,East,83,4.9,4.9,37,0.00,,---,0.00,VWS V14.01,2013-04-03 17:51:00,
2013-04-03 13:52:00,51.1,25.7,30.42,ENE,59,3.6,4.9,37,0.00,,---,0.00,VWS V14.01,2013-04-03 17:52:00,
2013-04-03 13:55:00,51.4,26.0,30.42,NNE,16,3.1,3.1,37,0.00,,---,0.00,VWS V14.01,2013-04-03 17:55:00,
2013-04-03 13:56:00,51.4,26.0,30.42,NNE,16,3.1,3.1,37,0.00,,---,0.00,VWS V14.01,2013-04-03 17:56:00,
2013-04-03 13:57:00,51.4,26.0,30.42,SSE,152,0.0,3.1,37,0.00,,---,0.00,VWS V14.01,2013-04-03 17:57:00,
2013-04-03 14:00:00,51.4,26.0,30.42,NE,51,6.3,6.3,37,0.00,,---,0.00,VWS V14.01,2013-04-03 18:00:00,
2013-04-03 14:01:00,51.4,26.0,30.42,ESE,118,4.0,6.3,37,0.00,,---,0.00,VWS V14.01,2013-04-03 18:01:00,
2013-04-03 14:02:00,51.4,26.0,30.42,ENE,57,5.8,5.8,37,0.00,,---,0.00,VWS V14.01,2013-04-03 18:02:00,
2013-04-03 14:06:00,51.4,26.0,30.42,NE,39,3.6,5.8,37,0.00,,---,0.00,VWS V14.01,2013-04-03 18:06:00,
2013-04-03 14:07:00,51.4,26.0,30.42,NE,39,3.6,3.6,37,0.00,,---,0.00,VWS V14.01,2013-04-03 18:07:00,
2013-04-03 14:08:00,51.4,26.0,30.42,NE,39,3.6,3.6,37,0.00,,---,0.00,VWS V14.01,2013-04-03 18:08:00,
2013-04-03 14:11:00,51.4,26.0,30.42,North,10,2.2,2.2,37,0.00,,---,0.00,VWS V14.01,2013-04-03 18:11:00,
2013-04-03 14:12:00,51.6,26.2,30.42,NNE,32,5.4,5.4,37,0.00,,---,0.00,VWS V14.01,2013-04-03 18:12:00,
2013-04-03 14:13:00,51.6,26.2,30.42,ENE,62,5.8,5.8,37,0.00,,---,0.00,VWS V14.01,2013-04-03 18:13:00,
2013-04-03 14:16:00,51.6,26.2,30.42,NNE,24,8.3,8.3,37,0.00,,---,0.00,VWS V14.01,2013-04-03 18:16:00,
2013-04-03 14:17:00,51.6,26.2,30.42,NNE,24,8.3,8.3,37,0.00,,---,0.00,VWS V14.01,2013-04-03 18:17:00,
2013-04-03 14:18:00,51.6,26.2,30.42,NNE,24,8.3,8.3,37,0.00,,---,0.00,VWS V14.01,2013-04-03 18:18:00,
2013-04-03 14:21:00,51.6,26.2,30.42,NE,39,7.6,7.6,37,0.00,,---,0.00,VWS V14.01,2013-04-03 18:21:00,
2013-04-03 14:23:00,51.6,26.2,30.42,East,87,3.1,3.1,37,0.00,,---,0.00,VWS V14.01,2013-04-03 18:23:00,
2013-04-03 14:27:00,51.6,26.2,30.42,NE,46,5.4,8.1,37,0.00,,---,0.00,VWS V14.01,2013-04-03 18:27:00,
2013-04-03 14:28:00,51.6,26.2,30.42,NE,48,10.5,10.5,37,0.00,,---,0.00,VWS V14.01,2013-04-03 18:28:00,
2013-04-03 14:32:00,52.0,25.9,30.42,East,82,3.1,3.1,36,0.00,,---,0.00,VWS V14.01,2013-04-03 18:32:00,
2013-04-03 14:33:00,52.0,25.9,30.42,NNW,339,5.4,7.6,36,0.00,,---,0.00,VWS V14.01,2013-04-03 18:33:00,
2013-04-03 14:37:00,52.2,26.0,30.42,NE,43,5.8,5.8,36,0.00,,---,0.00,VWS V14.01,2013-04-03 18:37:00,
2013-04-03 14:38:00,52.2,26.0,30.42,NE,43,5.8,5.8,36,0.00,,---,0.00,VWS V14.01,2013-04-03 18:38:00,
2013-04-03 14:42:00,52.3,26.2,30.42,NNE,28,4.9,4.9,36,0.00,,---,0.00,VWS V14.01,2013-04-03 18:42:00,
2013-04-03 14:43:00,52.3,26.2,30.42,ESE,110,5.4,5.4,36,0.00,,---,0.00,VWS V14.01,2013-04-03 18:43:00,
2013-04-03 14:44:00,52.3,26.2,30.42,ENE,75,5.4,5.4,36,0.00,,---,0.00,VWS V14.01,2013-04-03 18:44:00,
2013-04-03 14:47:00,52.3,26.2,30.42,SE,136,3.6,3.6,36,0.00,,---,0.00,VWS V14.01,2013-04-03 18:47:00,
2013-04-03 14:48:00,52.9,26.7,30.42,ENE,57,6.3,6.3,36,0.00,,---,0.00,VWS V14.01,2013-04-03 18:48:00,
2013-04-03 14:49:00,52.9,26.7,30.42,ENE,57,6.3,6.3,36,0.00,,---,0.00,VWS V14.01,2013-04-03 18:49:00,
2013-04-03 14:52:00,52.9,26.7,30.42,East,84,0.0,3.1,36,0.00,,---,0.00,VWS V14.01,2013-04-03 18:52:00,
2013-04-03 14:53:00,52.9,26.7,30.42,East,91,0.0,0.0,36,0.00,,---,0.00,VWS V14.01,2013-04-03 18:53:00,
2013-04-03 14:54:00,52.9,26.7,30.42,ENE,77,7.6,7.6,36,0.00,,---,0.00,VWS V14.01,2013-04-03 18:54:00,
2013-04-03 14:55:00,52.9,26.7,30.42,ENE,77,7.6,7.6,36,0.00,,---,0.00,VWS V14.01,2013-04-03 18:55:00,
2013-04-03 14:57:00,53.1,26.8,30.42,East,92,4.9,4.9,36,0.00,,---,0.00,VWS V14.01,2013-04-03 18:57:00,
2013-04-03 14:58:00,53.1,26.8,30.42,East,92,4.9,4.9,36,0.00,,---,0.00,VWS V14.01,2013-04-03 18:58:00,
2013-04-03 14:59:00,53.2,27.0,30.42,North,353,3.6,4.9,36,0.00,,---,0.00,VWS V14.01,2013-04-03 18:59:00,
2013-04-03 15:00:00,53.2,27.0,30.42,North,353,3.6,4.9,36,0.00,,---,0.00,VWS V14.01,2013-04-03 19:00:00,
2013-04-03 15:03:00,53.4,27.1,30.42,NW,324,2.7,2.7,36,0.00,,---,0.00,VWS V14.01,2013-04-03 19:03:00,
2013-04-03 15:04:00,53.4,27.1,30.42,NNE,32,4.0,4.0,36,0.00,,---,0.00,VWS V14.01,2013-04-03 19:04:00,
2013-04-03 15:05:00,53.6,27.3,30.42,NNE,32,4.0,4.0,36,0.00,,---,0.00,VWS V14.01,2013-04-03 19:05:00,
2013-04-03 15:08:00,53.6,27.3,30.42,ENE,71,3.6,3.6,36,0.00,,---,0.00,VWS V14.01,2013-04-03 19:08:00,
2013-04-03 15:09:00,53.6,27.3,30.42,ENE,71,3.6,3.6,36,0.00,,---,0.00,VWS V14.01,2013-04-03 19:09:00,
2013-04-03 15:11:00,53.6,27.3,30.42,ESE,105,3.6,3.6,36,0.00,,---,0.00,VWS V14.01,2013-04-03 19:11:00,
2013-04-03 15:13:00,53.6,27.3,30.42,NNE,24,5.8,5.8,36,0.00,,---,0.00,VWS V14.01,2013-04-03 19:13:00,
2013-04-03 15:14:00,53.6,27.3,30.42,NNE,24,5.8,5.8,36,0.00,,---,0.00,VWS V14.01,2013-04-03 19:14:00,
2013-04-03 15:15:00,53.6,27.3,30.42,NNE,24,5.8,5.8,36,0.00,,---,0.00,VWS V14.01,2013-04-03 19:15:00,
2013-04-03 15:16:00,54.1,27.8,30.42,NNE,24,5.8,5.8,36,0.00,,---,0.00,VWS V14.01,2013-04-03 19:16:00,
2013-04-03 15:19:00,54.1,27.8,30.42,NE,52,0.0,0.0,36,0.00,,---,0.00,VWS V14.01,2013-04-03 19:19:00,
2013-04-03 15:20:00,54.3,28.0,30.42,NE,52,0.0,0.0,36,0.00,,---,0.00,VWS V14.01,2013-04-03 19:20:00,
2013-04-03 15:21:00,54.3,28.0,30.42,ENE,64,3.6,3.6,36,0.00,,---,0.00,VWS V14.01,2013-04-03 19:21:00,
2013-04-03 15:24:00,54.3,28.0,30.42,NW,322,4.9,4.9,36,0.00,,---,0.00,VWS V14.01,2013-04-03 19:24:00,
2013-04-03 15:25:00,54.3,28.0,30.42,WNW,285,3.6,3.6,36,0.00,,---,0.00,VWS V14.01,2013-04-03 19:25:00,
2013-04-03 15:26:00,54.3,28.0,30.42,East,97,4.0,4.0,36,0.00,,---,0.00,VWS V14.01,2013-04-03 19:26:00,
2013-04-03 15:29:00,54.3,28.0,30.42,NE,40,8.7,8.7,36,0.00,,---,0.00,VWS V14.01,2013-04-03 19:29:00,
2013-04-03 15:30:00,54.3,28.0,30.42,NE,40,8.7,8.7,36,0.00,,---,0.00,VWS V14.01,2013-04-03 19:30:00,
2013-04-03 15:32:00,54.7,28.3,30.42,ENE,74,0.0,4.0,36,0.00,,---,0.00,VWS V14.01,2013-04-03 19:32:00,
2013-04-03 15:34:00,54.9,28.4,30.42,NNE,29,4.0,6.3,36,0.00,,---,0.00,VWS V14.01,2013-04-03 19:34:00,
2013-04-03 15:35:00,54.9,28.4,30.42,ENE,64,4.9,6.3,36,0.00,,---,0.00,VWS V14.01,2013-04-03 19:35:00,
2013-04-03 15:37:00,54.9,28.4,30.42,SSE,147,0.0,3.1,36,0.00,,---,0.00,VWS V14.01,2013-04-03 19:37:00,
2013-04-03 15:39:00,54.9,28.4,30.42,NNW,337,5.4,5.4,36,0.00,,---,0.00,VWS V14.01,2013-04-03 19:39:00,
2013-04-03 15:40:00,54.9,28.4,30.42,NNW,337,5.4,5.4,36,0.00,,---,0.00,VWS V14.01,2013-04-03 19:40:00,
2013-04-03 15:42:00,54.9,28.4,30.42,West,276,0.0,0.0,36,0.00,,---,0.00,VWS V14.01,2013-04-03 19:42:00,
2013-04-03 15:44:00,54.9,28.4,30.42,ESE,120,2.2,2.2,36,0.00,,---,0.00,VWS V14.01,2013-04-03 19:44:00,
2013-04-03 15:45:00,54.9,28.4,30.42,ESE,120,2.2,2.2,36,0.00,,---,0.00,VWS V14.01,2013-04-03 19:45:00,
2013-04-03 15:47:00,54.9,28.4,30.42,ENE,78,5.4,5.4,36,0.00,,---,0.00,VWS V14.01,2013-04-03 19:47:00,
2013-04-03 15:49:00,55.4,28.2,30.39,SE,132,5.4,5.4,35,0.00,,---,0.00,VWS V14.01,2013-04-03 19:49:00,
2013-04-03 15:50:00,55.4,28.2,30.39,SE,132,5.4,5.4,35,0.00,,---,0.00,VWS V14.01,2013-04-03 19:50:00,
2013-04-03 15:52:00,55.2,28.8,30.39,East,97,3.1,5.4,36,0.00,,---,0.00,VWS V14.01,2013-04-03 19:52:00,
2013-04-03 15:55:00,55.2,28.8,30.39,NNE,15,3.1,3.1,36,0.00,,---,0.00,VWS V14.01,2013-04-03 19:55:00,
2013-04-03 15:56:00,55.2,28.8,30.39,NNE,15,3.1,3.1,36,0.00,,---,0.00,VWS V14.01,2013-04-03 19:56:00,
2013-04-03 15:57:00,55.2,28.8,30.39,ENE,59,3.6,3.6,36,0.00,,---,0.00,VWS V14.01,2013-04-03 19:57:00,
2013-04-03 16:00:00,55.4,28.2,30.39,North,3,0.0,0.0,35,0.00,,---,0.00,VWS V14.01,2013-04-03 20:00:00,
2013-04-03 16:01:00,55.6,28.4,30.39,South,180,0.0,0.0,35,0.00,,---,0.00,VWS V14.01,2013-04-03 20:01:00,
2013-04-03 16:02:00,55.6,28.4,30.39,South,180,0.0,0.0,35,0.00,,---,0.00,VWS V14.01,2013-04-03 20:02:00,
2013-04-03 16:05:00,55.6,28.4,30.39,ESE,110,0.0,0.0,35,0.00,,---,0.00,VWS V14.01,2013-04-03 20:05:00,
2013-04-03 16:06:00,55.6,28.4,30.39,ESE,110,0.0,0.0,35,0.00,,---,0.00,VWS V14.01,2013-04-03 20:06:00,
2013-04-03 16:07:00,55.6,28.4,30.39,ESE,122,3.6,3.6,35,0.00,,---,0.00,VWS V14.01,2013-04-03 20:07:00,
2013-04-03 16:10:00,55.4,28.2,30.39,NE,52,4.9,4.9,35,0.00,,---,0.00,VWS V14.01,2013-04-03 20:10:00,
2013-04-03 16:11:00,55.4,28.2,30.39,NE,52,4.9,4.9,35,0.00,,---,0.00,VWS V14.01,2013-04-03 20:11:00,
2013-04-03 16:12:00,55.4,28.2,30.39,NE,44,4.0,4.0,35,0.00,,---,0.00,VWS V14.01,2013-04-03 20:12:00,
2013-04-03 16:15:00,55.4,28.2,30.39,ESE,122,5.8,5.8,35,0.00,,---,0.00,VWS V14.01,2013-04-03 20:15:00,
2013-04-03 16:16:00,55.4,28.2,30.39,ESE,122,5.8,5.8,35,0.00,,---,0.00,VWS V14.01,2013-04-03 20:16:00,
2013-04-03 16:17:00,55.4,28.2,30.39,ESE,120,4.5,6.7,35,0.00,,---,0.00,VWS V14.01,2013-04-03 20:17:00,
2013-04-03 16:20:00,55.4,28.2,30.39,South,179,4.9,4.9,35,0.00,,---,0.00,VWS V14.01,2013-04-03 20:20:00,
2013-04-03 16:21:00,55.4,28.2,30.39,SE,142,4.0,4.0,35,0.00,,---,0.00,VWS V14.01,2013-04-03 20:21:00,
2013-04-03 16:22:00,55.4,28.2,30.39,SE,133,3.1,3.1,35,0.00,,---,0.00,VWS V14.01,2013-04-03 20:22:00,
2013-04-03 16:25:00,55.0,28.6,30.39,East,97,6.3,6.3,36,0.00,,---,0.00,VWS V14.01,2013-04-03 20:25:00,
2013-04-03 16:26:00,55.0,28.6,30.39,SSE,161,6.3,6.3,36,0.00,,---,0.00,VWS V14.01,2013-04-03 20:26:00,
2013-04-03 16:27:00,55.0,28.6,30.39,ESE,117,3.1,6.3,36,0.00,,---,0.00,VWS V14.01,2013-04-03 20:27:00,
2013-04-03 16:30:00,54.9,28.4,30.39,East,89,5.8,6.3,36,0.00,,---,0.00,VWS V14.01,2013-04-03 20:30:00,
2013-04-03 16:31:00,54.9,28.4,30.39,SE,139,4.9,4.9,36,0.00,,---,0.00,VWS V14.01,2013-04-03 20:31:00,
2013-04-03 16:32:00,54.9,28.4,30.39,SE,139,4.9,4.9,36,0.00,,---,0.00,VWS V14.01,2013-04-03 20:32:00,
2013-04-03 16:35:00,54.9,28.4,30.39,SE,130,5.8,5.8,36,0.00,,---,0.00,VWS V14.01,2013-04-03 20:35:00,
2013-04-03 16:37:00,54.9,28.4,30.39,SE,125,6.3,6.3,36,0.00,,---,0.00,VWS V14.01,2013-04-03 20:37:00,
2013-04-03 16:38:00,54.7,28.3,30.39,ESE,114,8.1,8.1,36,0.00,,---,0.00,VWS V14.01,2013-04-03 20:38:00,
2013-04-03 16:40:00,54.7,28.3,30.39,SE,142,4.9,5.8,36,0.00,,---,0.00,VWS V14.01,2013-04-03 20:40:00,
2013-04-03 16:42:00,54.7,28.3,30.39,SE,130,3.6,5.8,36,0.00,,---,0.00,VWS V14.01,2013-04-03 20:42:00,
2013-04-03 16:43:00,54.0,27.6,30.39,SE,130,3.6,3.6,36,0.00,,---,0.00,VWS V14.01,2013-04-03 20:43:00,
2013-04-03 16:45:00,54.0,27.6,30.39,SE,126,3.6,3.6,36,0.00,,---,0.00,VWS V14.01,2013-04-03 20:45:00,
2013-04-03 16:47:00,53.8,27.5,30.39,East,83,5.4,6.3,36,0.00,,---,0.00,VWS V14.01,2013-04-03 20:47:00,
2013-04-03 16:48:00,53.8,27.5,30.39,East,83,5.4,5.4,36,0.00,,---,0.00,VWS V14.01,2013-04-03 20:48:00,
2013-04-03 16:51:00,54.0,27.6,30.39,ESE,114,5.8,5.8,36,0.00,,---,0.00,VWS V14.01,2013-04-03 20:51:00,
2013-04-03 16:52:00,54.0,27.6,30.39,ESE,114,5.8,5.8,36,0.00,,---,0.00,VWS V14.01,2013-04-03 20:52:00,
2013-04-03 16:53:00,54.0,27.6,30.39,ESE,117,7.6,7.6,36,0.00,,---,0.00,VWS V14.01,2013-04-03 20:53:00,
2013-04-03 16:56:00,53.6,27.3,30.39,SE,128,5.4,5.8,36,0.00,,---,0.00,VWS V14.01,2013-04-03 20:56:00,
2013-04-03 16:57:00,53.6,27.3,30.39,SSE,147,6.3,6.3,36,0.00,,---,0.00,VWS V14.01,2013-04-03 20:57:00,
2013-04-03 16:59:00,53.6,27.3,30.39,ESE,121,6.3,6.3,36,0.00,,---,0.00,VWS V14.01,2013-04-03 20:59:00,
2013-04-03 17:01:00,53.4,27.1,30.39,ESE,120,4.9,4.9,36,0.00,,---,0.00,VWS V14.01,2013-04-03 21:01:00,
2013-04-03 17:02:00,53.6,27.3,30.39,ESE,120,4.9,4.9,36,0.00,,---,0.00,VWS V14.01,2013-04-03 21:02:00,
2013-04-03 17:03:00,53.6,27.3,30.39,East,93,8.7,8.7,36,0.00,,---,0.00,VWS V14.01,2013-04-03 21:03:00,
2013-04-03 17:04:00,53.6,27.3,30.39,SE,138,6.3,6.3,36,0.00,,---,0.00,VWS V14.01,2013-04-03 21:04:00,
2013-04-03 17:06:00,53.8,27.5,30.39,SSE,159,4.0,6.3,36,0.00,,---,0.00,VWS V14.01,2013-04-03 21:06:00,
2013-04-03 17:07:00,53.8,27.5,30.39,SSE,159,4.0,4.0,36,0.00,,---,0.00,VWS V14.01,2013-04-03 21:07:00,
2013-04-03 17:08:00,53.8,27.5,30.39,SE,145,5.4,5.4,36,0.00,,---,0.00,VWS V14.01,2013-04-03 21:08:00,
2013-04-03 17:10:00,53.8,27.5,30.39,SSE,164,3.1,4.0,36,0.00,,---,0.00,VWS V14.01,2013-04-03 21:10:00,
2013-04-03 17:12:00,54.1,27.8,30.39,ESE,123,6.3,6.3,36,0.00,,---,0.00,VWS V14.01,2013-04-03 21:12:00,
2013-04-03 17:13:00,54.1,27.8,30.39,SE,142,3.1,6.3,36,0.00,,---,0.00,VWS V14.01,2013-04-03 21:13:00,
2013-04-03 17:15:00,54.3,28.0,30.39,SE,142,3.1,3.1,36,0.00,,---,0.00,VWS V14.01,2013-04-03 21:15:00,
2013-04-03 17:17:00,54.3,28.0,30.39,SSE,147,8.1,8.1,36,0.00,,---,0.00,VWS V14.01,2013-04-03 21:17:00,
2013-04-03 17:18:00,54.3,28.0,30.39,SSE,150,7.6,7.6,36,0.00,,---,0.00,VWS V14.01,2013-04-03 21:18:00,
2013-04-03 17:20:00,54.3,28.0,30.39,SSE,157,4.0,6.3,36,0.00,,---,0.00,VWS V14.01,2013-04-03 21:20:00,
2013-04-03 17:22:00,54.0,27.6,30.39,SE,139,5.8,5.8,36,0.00,,---,0.00,VWS V14.01,2013-04-03 21:22:00,
2013-04-03 17:23:00,54.0,27.6,30.42,SSE,148,5.4,5.8,36,0.00,,---,0.00,VWS V14.01,2013-04-03 21:23:00,
2013-04-03 17:25:00,54.0,27.6,30.42,SSE,163,5.8,5.8,36,0.00,,---,0.00,VWS V14.01,2013-04-03 21:25:00,
2013-04-03 17:27:00,53.6,27.3,30.42,South,180,5.4,6.3,36,0.00,,---,0.00,VWS V14.01,2013-04-03 21:27:00,
2013-04-03 17:28:00,53.6,27.3,30.42,South,180,5.4,5.4,36,0.00,,---,0.00,VWS V14.01,2013-04-03 21:28:00,
2013-04-03 17:30:00,53.8,27.5,30.42,SSE,150,5.4,5.4,36,0.00,,---,0.00,VWS V14.01,2013-04-03 21:30:00,
2013-04-03 17:32:00,53.8,27.5,30.42,ESE,117,3.6,3.6,36,0.00,,---,0.00,VWS V14.01,2013-04-03 21:32:00,
2013-04-03 17:33:00,53.8,27.5,30.42,ESE,117,3.6,3.6,36,0.00,,---,0.00,VWS V14.01,2013-04-03 21:33:00,
2013-04-03 17:35:00,53.8,27.5,30.42,ENE,77,4.0,4.0,36,0.00,,---,0.00,VWS V14.01,2013-04-03 21:35:00,
2013-04-03 17:38:00,53.8,27.5,30.42,ENE,77,4.0,4.0,36,0.00,,---,0.00,VWS V14.01,2013-04-03 21:38:00,
2013-04-03 17:40:00,53.8,27.5,30.42,SE,140,4.0,4.0,36,0.00,,---,0.00,VWS V14.01,2013-04-03 21:40:00,
2013-04-03 17:43:00,53.6,27.3,30.42,SE,146,5.8,5.8,36,0.00,,---,0.00,VWS V14.01,2013-04-03 21:43:00,
2013-04-03 17:45:00,53.4,27.1,30.42,SSE,151,5.4,6.3,36,0.00,,---,0.00,VWS V14.01,2013-04-03 21:45:00,
2013-04-03 17:48:00,53.4,27.1,30.42,SSE,159,3.6,3.6,36,0.00,,---,0.00,VWS V14.01,2013-04-03 21:48:00,
2013-04-03 17:50:00,53.4,27.1,30.42,SE,143,5.4,5.4,36,0.00,,---,0.00,VWS V14.01,2013-04-03 21:50:00,
2013-04-03 17:53:00,53.4,27.1,30.42,East,99,8.1,8.1,36,0.00,,---,0.00,VWS V14.01,2013-04-03 21:53:00,
2013-04-03 17:55:00,53.1,27.5,30.42,East,99,8.1,8.1,37,0.00,,---,0.00,VWS V14.01,2013-04-03 21:55:00,
2013-04-03 17:58:00,53.1,27.5,30.42,ESE,123,3.6,3.6,37,0.00,,---,0.00,VWS V14.01,2013-04-03 21:58:00,
2013-04-03 18:00:00,53.1,27.5,30.42,SE,135,3.6,3.6,37,0.00,,---,0.00,VWS V14.01,2013-04-03 22:00:00,
2013-04-03 18:03:00,52.9,27.3,30.42,SE,131,5.4,5.4,37,0.00,,---,0.00,VWS V14.01,2013-04-03 22:03:00,
2013-04-03 18:05:00,52.9,27.3,30.42,SE,129,5.8,5.8,37,0.00,,---,0.00,VWS V14.01,2013-04-03 22:05:00,
2013-04-03 18:08:00,52.9,27.3,30.42,SE,130,5.8,5.8,37,0.00,,---,0.00,VWS V14.01,2013-04-03 22:08:00,
2013-04-03 18:09:00,52.9,27.3,30.42,South,173,3.1,5.8,37,0.00,,---,0.00,VWS V14.01,2013-04-03 22:09:00,
2013-04-03 18:10:00,52.9,27.3,30.42,SSE,158,3.1,3.1,37,0.00,,---,0.00,VWS V14.01,2013-04-03 22:10:00,
2013-04-03 18:13:00,52.7,26.5,30.42,ESE,122,5.4,5.4,36,0.00,,---,0.00,VWS V14.01,2013-04-03 22:13:00,
2013-04-03 18:14:00,52.7,26.5,30.42,ESE,116,3.6,5.4,36,0.00,,---,0.00,VWS V14.01,2013-04-03 22:14:00,
2013-04-03 18:15:00,52.7,26.5,30.42,ESE,116,3.6,3.6,36,0.00,,---,0.00,VWS V14.01,2013-04-03 22:15:00,
2013-04-03 18:18:00,52.7,27.2,30.42,SE,143,4.9,4.9,37,0.00,,---,0.00,VWS V14.01,2013-04-03 22:18:00,
2013-04-03 18:19:00,52.7,27.2,30.42,SE,137,5.8,5.8,37,0.00,,---,0.00,VWS V14.01,2013-04-03 22:19:00,
2013-04-03 18:20:00,52.7,27.2,30.42,East,83,4.0,5.4,37,0.00,,---,0.00,VWS V14.01,2013-04-03 22:20:00,
2013-04-03 18:23:00,52.7,27.2,30.42,ESE,105,4.0,4.0,37,0.00,,---,0.00,VWS V14.01,2013-04-03 22:23:00,
2013-04-03 18:24:00,52.7,27.2,30.42,SSE,157,5.4,5.4,37,0.00,,---,0.00,VWS V14.01,2013-04-03 22:24:00,
2013-04-03 18:26:00,52.7,27.2,30.42,SE,135,4.9,4.9,37,0.00,,---,0.00,VWS V14.01,2013-04-03 22:26:00,
2013-04-03 18:28:00,52.7,27.2,30.42,SE,142,2.7,2.7,37,0.00,,---,0.00,VWS V14.01,2013-04-03 22:28:00,
2013-04-03 18:29:00,52.7,27.2,30.42,SE,142,2.7,2.7,37,0.00,,---,0.00,VWS V14.01,2013-04-03 22:29:00,
2013-04-03 18:31:00,52.7,27.2,30.42,SE,142,2.7,2.7,37,0.00,,---,0.00,VWS V14.01,2013-04-03 22:31:00,
2013-04-03 18:33:00,52.3,26.9,30.42,ESE,115,3.6,3.6,37,0.00,,---,0.00,VWS V14.01,2013-04-03 22:33:00,
2013-04-03 18:34:00,52.3,26.9,30.42,SSE,150,5.8,5.8,37,0.00,,---,0.00,VWS V14.01,2013-04-03 22:34:00,
2013-04-03 18:36:00,52.2,26.7,30.42,SSE,148,2.7,2.7,37,0.00,,---,0.00,VWS V14.01,2013-04-03 22:36:00,
2013-04-03 18:38:00,52.0,26.5,30.42,ESE,113,2.7,2.7,37,0.00,,---,0.00,VWS V14.01,2013-04-03 22:38:00,
2013-04-03 18:39:00,52.0,26.5,30.42,ESE,113,2.7,2.7,37,0.00,,---,0.00,VWS V14.01,2013-04-03 22:39:00,
2013-04-03 18:41:00,52.0,26.5,30.42,ESE,113,2.7,2.7,37,0.00,,---,0.00,VWS V14.01,2013-04-03 22:41:00,
2013-04-03 18:43:00,52.0,26.5,30.42,SE,129,4.0,5.4,37,0.00,,---,0.00,VWS V14.01,2013-04-03 22:43:00,
2013-04-03 18:44:00,52.0,26.5,30.42,SE,129,4.0,5.4,37,0.00,,---,0.00,VWS V14.01,2013-04-03 22:44:00,
2013-04-03 18:46:00,52.0,26.5,30.42,SE,129,4.0,4.0,37,0.00,,---,0.00,VWS V14.01,2013-04-03 22:46:00,
2013-04-03 18:48:00,51.6,26.9,30.42,ESE,120,0.0,0.0,38,0.00,,---,0.00,VWS V14.01,2013-04-03 22:48:00,
2013-04-03 18:49:00,51.6,26.9,30.42,ESE,120,0.0,0.0,38,0.00,,---,0.00,VWS V14.01,2013-04-03 22:49:00,
2013-04-03 18:51:00,51.6,26.9,30.42,ESE,111,4.5,4.5,38,0.00,,---,0.00,VWS V14.01,2013-04-03 22:51:00,
2013-04-03 18:53:00,51.6,26.9,30.42,ESE,111,4.5,4.5,38,0.00,,---,0.00,VWS V14.01,2013-04-03 22:53:00,
2013-04-03 18:54:00,51.6,26.9,30.42,ESE,111,4.5,4.5,38,0.00,,---,0.00,VWS V14.01,2013-04-03 22:54:00,
2013-04-03 18:56:00,51.6,26.9,30.42,SSE,150,3.6,4.5,38,0.00,,---,0.00,VWS V14.01,2013-04-03 22:56:00,
2013-04-03 18:58:00,51.6,26.9,30.42,ESE,116,4.9,8.1,38,0.00,,---,0.00,VWS V14.01,2013-04-03 22:58:00,
2013-04-03 18:59:00,51.6,26.9,30.42,ENE,76,2.7,2.7,38,0.00,,---,0.00,VWS V14.01,2013-04-03 22:59:00,
2013-04-03 19:01:00,51.3,26.5,30.42,ESE,102,4.0,4.0,38,0.00,,---,0.00,VWS V14.01,2013-04-03 23:01:00,
2013-04-03 19:03:00,51.3,26.5,30.42,ENE,77,2.7,4.0,38,0.00,,---,0.00,VWS V14.01,2013-04-03 23:03:00,
2013-04-03 19:04:00,51.1,26.4,30.42,ENE,77,2.7,2.7,38,0.00,,---,0.00,VWS V14.01,2013-04-03 23:04:00,
2013-04-03 19:07:00,51.1,26.4,30.42,SE,141,3.6,3.6,38,0.00,,---,0.00,VWS V14.01,2013-04-03 23:07:00,
2013-04-03 19:09:00,51.1,26.4,30.42,ESE,117,5.8,5.8,38,0.00,,---,0.00,VWS V14.01,2013-04-03 23:09:00,
2013-04-03 19:10:00,51.1,26.4,30.42,East,100,2.7,5.8,38,0.00,,---,0.00,VWS V14.01,2013-04-03 23:10:00,
2013-04-03 19:12:00,51.1,26.4,30.42,SSE,154,4.9,4.9,38,0.00,,---,0.00,VWS V14.01,2013-04-03 23:12:00,
2013-04-03 19:14:00,51.1,26.4,30.42,ESE,115,4.0,4.0,38,0.00,,---,0.00,VWS V14.01,2013-04-03 23:14:00,
2013-04-03 19:15:00,51.1,26.4,30.42,ESE,115,4.0,4.0,38,0.00,,---,0.00,VWS V14.01,2013-04-03 23:15:00,
2013-04-03 19:17:00,50.9,26.2,30.42,SE,139,2.7,4.0,38,0.00,,---,0.00,VWS V14.01,2013-04-03 23:17:00,
2013-04-03 19:19:00,50.9,26.2,30.42,ESE,115,2.7,2.7,38,0.00,,---,0.00,VWS V14.01,2013-04-03 23:19:00,
2013-04-03 19:20:00,50.9,26.2,30.42,ESE,115,2.7,2.7,38,0.00,,---,0.00,VWS V14.01,2013-04-03 23:20:00,
2013-04-03 19:22:00,50.9,26.2,30.42,SE,128,3.1,3.1,38,0.00,,---,0.00,VWS V14.01,2013-04-03 23:22:00,
2013-04-03 19:24:00,50.9,26.2,30.42,East,82,4.0,4.0,38,0.00,,---,0.00,VWS V14.01,2013-04-03 23:24:00,
2013-04-03 19:25:00,50.9,26.2,30.42,East,82,4.0,4.0,38,0.00,,---,0.00,VWS V14.01,2013-04-03 23:25:00,
2013-04-03 19:27:00,50.9,26.2,30.42,SE,140,2.7,2.7,38,0.00,,---,0.00,VWS V14.01,2013-04-03 23:27:00,
2013-04-03 19:29:00,50.7,26.0,30.42,SE,140,2.7,2.7,38,0.00,,---,0.00,VWS V14.01,2013-04-03 23:29:00,
2013-04-03 19:30:00,50.7,26.0,30.42,SE,140,2.7,2.7,38,0.00,,---,0.00,VWS V14.01,2013-04-03 23:30:00,
2013-04-03 19:32:00,50.7,26.0,30.42,ESE,111,4.0,4.0,38,0.00,,---,0.00,VWS V14.01,2013-04-03 23:32:00,
2013-04-03 19:34:00,50.7,26.0,30.42,ESE,110,4.0,4.0,38,0.00,,---,0.00,VWS V14.01,2013-04-03 23:34:00,
2013-04-03 19:35:00,50.7,26.0,30.42,ESE,102,4.0,4.0,38,0.00,,---,0.00,VWS V14.01,2013-04-03 23:35:00,
2013-04-03 19:37:00,50.9,26.2,30.42,ENE,70,4.0,4.0,38,0.00,,---,0.00,VWS V14.01,2013-04-03 23:37:00,
2013-04-03 19:40:00,50.7,25.4,30.42,East,88,3.1,3.1,37,0.00,,---,0.00,VWS V14.01,2013-04-03 23:40:00,
2013-04-03 19:42:00,50.7,25.4,30.42,ESE,118,2.7,2.7,37,0.00,,---,0.00,VWS V14.01,2013-04-03 23:42:00,
2013-04-03 19:45:00,50.7,25.4,30.42,ESE,110,0.0,0.0,37,0.00,,---,0.00,VWS V14.01,2013-04-03 23:45:00,
2013-04-03 19:47:00,50.7,25.4,30.42,ESE,106,3.1,3.1,37,0.00,,---,0.00,VWS V14.01,2013-04-03 23:47:00,
2013-04-03 19:50:00,50.5,25.2,30.42,ENE,68,0.0,3.6,37,0.00,,---,0.00,VWS V14.01,2013-04-03 23:50:00,
2013-04-03 19:52:00,50.4,25.7,30.42,ESE,109,0.0,0.0,38,0.00,,---,0.00,VWS V14.01,2013-04-03 23:52:00,
2013-04-03 19:55:00,50.4,25.7,30.42,SE,139,2.7,2.7,38,0.00,,---,0.00,VWS V14.01,2013-04-03 23:55:00,
2013-04-03 19:57:00,50.2,25.6,30.42,ESE,104,5.4,5.4,38,0.00,,---,0.00,VWS V14.01,2013-04-03 23:57:00,
2013-04-03 20:00:00,50.2,25.6,30.42,ESE,104,5.4,5.4,38,0.00,,---,0.00,VWS V14.01,2013-04-04 00:00:00,
2013-04-03 20:01:00,50.2,25.6,30.42,ESE,104,5.4,5.4,38,0.00,,---,0.00,VWS V14.01,2013-04-04 00:01:00,
2013-04-03 20:03:00,50.2,25.6,30.42,East,90,2.2,2.2,38,0.00,,---,0.00,VWS V14.01,2013-04-04 00:03:00,
2013-04-03 20:05:00,50.2,25.6,30.42,ESE,122,4.0,4.0,38,0.00,,---,0.00,VWS V14.01,2013-04-04 00:05:00,
2013-04-03 20:06:00,50.0,25.4,30.42,ESE,114,3.1,4.0,38,0.00,,---,0.00,VWS V14.01,2013-04-04 00:06:00,
2013-04-03 20:08:00,50.0,25.4,30.42,ENE,68,2.2,3.1,38,0.00,,---,0.00,VWS V14.01,2013-04-04 00:08:00,
2013-04-03 20:10:00,50.0,25.4,30.42,NNE,14,4.0,4.0,38,0.00,,---,0.00,VWS V14.01,2013-04-04 00:10:00,
2013-04-03 20:11:00,50.0,25.4,30.42,ESE,116,4.0,4.0,38,0.00,,---,0.00,VWS V14.01,2013-04-04 00:11:00,
2013-04-03 20:13:00,49.8,25.2,30.42,East,90,0.0,3.6,38,0.00,,---,0.00,VWS V14.01,2013-04-04 00:13:00,
2013-04-03 20:15:00,49.8,25.2,30.42,NE,52,0.0,0.0,38,0.00,,---,0.00,VWS V14.01,2013-04-04 00:15:00,
2013-04-03 20:16:00,49.8,25.2,30.42,NE,41,0.0,0.0,38,0.00,,---,0.00,VWS V14.01,2013-04-04 00:16:00,
2013-04-03 20:18:00,49.8,25.2,30.42,NE,54,0.0,0.0,38,0.00,,---,0.00,VWS V14.01,2013-04-04 00:18:00,
2013-04-03 20:20:00,49.8,25.2,30.42,ESE,115,0.0,0.0,38,0.00,,---,0.00,VWS V14.01,2013-04-04 00:20:00,
2013-04-03 20:21:00,49.8,25.2,30.42,ESE,115,0.0,0.0,38,0.00,,---,0.00,VWS V14.01,2013-04-04 00:21:00,
2013-04-03 20:23:00,49.8,25.2,30.42,ESE,122,2.7,2.7,38,0.00,,---,0.00,VWS V14.01,2013-04-04 00:23:00,
2013-04-03 20:25:00,49.5,24.9,30.42,ESE,122,0.0,0.0,38,0.00,,---,0.00,VWS V14.01,2013-04-04 00:25:00,
2013-04-03 20:26:00,49.5,24.9,30.42,ESE,122,0.0,0.0,38,0.00,,---,0.00,VWS V14.01,2013-04-04 00:26:00,
2013-04-03 20:28:00,49.5,24.9,30.42,ESE,122,0.0,0.0,38,0.00,,---,0.00,VWS V14.01,2013-04-04 00:28:00,
2013-04-03 20:30:00,49.5,24.9,30.42,ESE,122,0.0,0.0,38,0.00,,---,0.00,VWS V14.01,2013-04-04 00:30:00,
2013-04-03 20:32:00,49.5,24.9,30.42,ESE,122,0.0,0.0,38,0.00,,---,0.00,VWS V14.01,2013-04-04 00:32:00,
2013-04-03 20:33:00,49.5,24.9,30.42,ESE,122,0.0,0.0,38,0.00,,---,0.00,VWS V14.01,2013-04-04 00:33:00,
2013-04-03 20:35:00,49.5,24.9,30.42,SE,126,0.0,0.0,38,0.00,,---,0.00,VWS V14.01,2013-04-04 00:35:00,
2013-04-03 20:37:00,49.5,24.9,30.42,SE,140,0.0,0.0,38,0.00,,---,0.00,VWS V14.01,2013-04-04 00:37:00,
2013-04-03 20:38:00,48.7,24.9,30.45,SE,140,0.0,0.0,39,0.00,,---,0.00,VWS V14.01,2013-04-04 00:38:00,
2013-04-03 20:40:00,48.7,24.9,30.45,SE,140,0.0,0.0,39,0.00,,---,0.00,VWS V14.01,2013-04-04 00:40:00,
2013-04-03 20:41:00,48.7,24.9,30.45,SE,140,0.0,0.0,39,0.00,,---,0.00,VWS V14.01,2013-04-04 00:41:00,
2013-04-03 20:42:00,48.7,24.9,30.45,SE,140,0.0,0.0,39,0.00,,---,0.00,VWS V14.01,2013-04-04 00:42:00,
2013-04-03 20:43:00,48.7,24.9,30.45,SE,140,0.0,0.0,39,0.00,,---,0.00,VWS V14.01,2013-04-04 00:43:00,
2013-04-03 20:45:00,48.7,24.9,30.45,ENE,78,0.0,0.0,39,0.00,,---,0.00,VWS V14.01,2013-04-04 00:45:00,
2013-04-03 20:46:00,48.7,24.9,30.45,ENE,67,0.0,0.0,39,0.00,,---,0.00,VWS V14.01,2013-04-04 00:46:00,
2013-04-03 20:47:00,48.4,24.6,30.45,ENE,67,0.0,0.0,39,0.00,,---,0.00,VWS V14.01,2013-04-04 00:47:00,
2013-04-03 20:48:00,48.4,24.6,30.45,ENE,68,0.0,0.0,39,0.00,,---,0.00,VWS V14.01,2013-04-04 00:48:00,
2013-04-03 20:51:00,48.2,24.4,30.45,ENE,67,0.0,0.0,39,0.00,,---,0.00,VWS V14.01,2013-04-04 00:51:00,
2013-04-03 20:52:00,48.2,24.4,30.45,ENE,67,0.0,0.0,39,0.00,,---,0.00,VWS V14.01,2013-04-04 00:52:00,
2013-04-03 20:53:00,48.2,24.4,30.45,ENE,67,0.0,0.0,39,0.00,,---,0.00,VWS V14.01,2013-04-04 00:53:00,
2013-04-03 20:56:00,47.7,24.5,30.45,ENE,68,0.0,0.0,40,0.00,,---,0.00,VWS V14.01,2013-04-04 00:56:00,
2013-04-03 20:57:00,47.7,24.5,30.45,ENE,67,0.0,0.0,40,0.00,,---,0.00,VWS V14.01,2013-04-04 00:57:00,
2013-04-03 20:58:00,47.7,24.5,30.45,ENE,67,0.0,0.0,40,0.00,,---,0.00,VWS V14.01,2013-04-04 00:58:00,
2013-04-03 21:01:00,47.1,24.6,30.45,ENE,61,0.0,0.0,41,0.00,,---,0.00,VWS V14.01,2013-04-04 01:01:00,
2013-04-03 21:02:00,47.1,24.6,30.45,ENE,61,0.0,0.0,41,0.00,,---,0.00,VWS V14.01,2013-04-04 01:02:00,
2013-04-03 21:03:00,47.1,24.6,30.45,ENE,61,0.0,0.0,41,0.00,,---,0.00,VWS V14.01,2013-04-04 01:03:00,
2013-04-03 21:06:00,46.6,24.7,30.45,ENE,61,0.0,0.0,42,0.00,,---,0.00,VWS V14.01,2013-04-04 01:06:00,
2013-04-03 21:07:00,46.6,24.7,30.45,ENE,61,0.0,0.0,42,0.00,,---,0.00,VWS V14.01,2013-04-04 01:07:00,
2013-04-03 21:08:00,46.6,24.7,30.45,NNW,343,0.0,0.0,42,0.00,,---,0.00,VWS V14.01,2013-04-04 01:08:00,
2013-04-03 21:11:00,46.6,24.7,30.45,NNW,341,0.0,0.0,42,0.00,,---,0.00,VWS V14.01,2013-04-04 01:11:00,
2013-04-03 21:12:00,46.6,24.7,30.45,NNW,341,0.0,0.0,42,0.00,,---,0.00,VWS V14.01,2013-04-04 01:12:00,
2013-04-03 21:14:00,45.7,23.9,30.45,NNW,341,0.0,0.0,42,0.00,,---,0.00,VWS V14.01,2013-04-04 01:14:00,
2013-04-03 21:16:00,45.5,24.3,30.45,NNW,342,0.0,0.0,43,0.00,,---,0.00,VWS V14.01,2013-04-04 01:16:00,
2013-04-03 21:17:00,45.5,24.3,30.45,NNW,342,0.0,0.0,43,0.00,,---,0.00,VWS V14.01,2013-04-04 01:17:00,
2013-04-03 21:19:00,45.5,24.3,30.45,NNW,342,0.0,0.0,43,0.00,,---,0.00,VWS V14.01,2013-04-04 01:19:00,
2013-04-03 21:22:00,45.5,24.3,30.45,NNE,15,0.0,0.0,43,0.00,,---,0.00,VWS V14.01,2013-04-04 01:22:00,
2013-04-03 21:24:00,44.8,23.7,30.45,North,353,0.0,0.0,43,0.00,,---,0.00,VWS V14.01,2013-04-04 01:24:00,
2013-04-03 21:27:00,44.6,23.5,30.45,North,353,0.0,0.0,43,0.00,,---,0.00,VWS V14.01,2013-04-04 01:27:00,
2013-04-03 21:29:00,44.6,23.5,30.45,North,353,0.0,0.0,43,0.00,,---,0.00,VWS V14.01,2013-04-04 01:29:00,
2013-04-03 21:32:00,44.6,23.5,30.45,North,353,0.0,0.0,43,0.00,,---,0.00,VWS V14.01,2013-04-04 01:32:00,
2013-04-03 21:34:00,44.2,23.7,30.45,North,2,0.0,0.0,44,0.00,,---,0.00,VWS V14.01,2013-04-04 01:34:00,
2013-04-03 21:37:00,44.2,23.7,30.45,North,2,0.0,0.0,44,0.00,,---,0.00,VWS V14.01,2013-04-04 01:37:00,
2013-04-03 21:39:00,44.2,23.7,30.47,North,2,0.0,0.0,44,0.00,,---,0.00,VWS V14.01,2013-04-04 01:39:00,
2013-04-03 21:42:00,44.2,23.7,30.47,North,2,0.0,0.0,44,0.00,,---,0.00,VWS V14.01,2013-04-04 01:42:00,
2013-04-03 21:45:00,43.9,22.9,30.47,North,2,0.0,0.0,43,0.00,,---,0.00,VWS V14.01,2013-04-04 01:45:00,
2013-04-03 21:47:00,43.7,22.7,30.47,North,2,0.0,0.0,43,0.00,,---,0.00,VWS V14.01,2013-04-04 01:47:00,
2013-04-03 21:50:00,43.7,22.7,30.47,North,2,0.0,0.0,43,0.00,,---,0.00,VWS V14.01,2013-04-04 01:50:00,
2013-04-03 21:52:00,43.3,22.4,30.47,North,2,0.0,0.0,43,0.00,,---,0.00,VWS V14.01,2013-04-04 01:52:00,
2013-04-03 21:55:00,43.2,22.2,30.47,North,2,0.0,0.0,43,0.00,,---,0.00,VWS V14.01,2013-04-04 01:55:00,
2013-04-03 21:57:00,43.2,22.2,30.47,North,2,0.0,0.0,43,0.00,,---,0.00,VWS V14.01,2013-04-04 01:57:00,
2013-04-03 21:58:00,43.2,22.2,30.47,North,2,0.0,0.0,43,0.00,,---,0.00,VWS V14.01,2013-04-04 01:58:00,
2013-04-03 22:00:00,43.2,22.2,30.47,North,2,0.0,0.0,43,0.00,,---,0.00,VWS V14.01,2013-04-04 02:00:00,
2013-04-03 22:02:00,43.2,22.2,30.47,North,2,0.0,0.0,43,0.00,,---,0.00,VWS V14.01,2013-04-04 02:02:00,
2013-04-03 22:03:00,43.2,22.2,30.47,North,2,0.0,0.0,43,0.00,,---,0.00,VWS V14.01,2013-04-04 02:03:00,
2013-04-03 22:05:00,43.2,22.2,30.47,North,353,0.0,0.0,43,0.00,,---,0.00,VWS V14.01,2013-04-04 02:05:00,
2013-04-03 22:07:00,43.2,22.2,30.47,NNE,17,0.0,0.0,43,0.00,,---,0.00,VWS V14.01,2013-04-04 02:07:00,
2013-04-03 22:08:00,43.2,22.2,30.47,North,7,0.0,0.0,43,0.00,,---,0.00,VWS V14.01,2013-04-04 02:08:00,
2013-04-03 22:10:00,42.8,22.4,30.47,North,1,0.0,0.0,44,0.00,,---,0.00,VWS V14.01,2013-04-04 02:10:00,
2013-04-03 22:12:00,42.8,22.4,30.47,North,353,0.0,0.0,44,0.00,,---,0.00,VWS V14.01,2013-04-04 02:12:00,
2013-04-03 22:13:00,42.8,22.4,30.47,NNE,12,0.0,0.0,44,0.00,,---,0.00,VWS V14.01,2013-04-04 02:13:00,
2013-04-03 22:15:00,42.8,22.4,30.47,NNE,16,0.0,0.0,44,0.00,,---,0.00,VWS V14.01,2013-04-04 02:15:00,
2013-04-03 22:17:00,42.8,22.4,30.47,NNE,14,0.0,0.0,44,0.00,,---,0.00,VWS V14.01,2013-04-04 02:17:00,
2013-04-03 22:18:00,42.8,22.4,30.47,NNE,14,0.0,0.0,44,0.00,,---,0.00,VWS V14.01,2013-04-04 02:18:00,
2013-04-03 22:19:00,43.0,23.1,30.47,North,353,0.0,0.0,45,0.00,,---,0.00,VWS V14.01,2013-04-04 02:19:00,
2013-04-03 22:20:00,43.0,23.1,30.47,NNW,328,0.0,0.0,45,0.00,,---,0.00,VWS V14.01,2013-04-04 02:20:00,
2013-04-03 22:22:00,43.0,23.1,30.47,NNW,345,0.0,0.0,45,0.00,,---,0.00,VWS V14.01,2013-04-04 02:22:00,
2013-04-03 22:23:00,43.0,23.1,30.47,NNW,330,0.0,0.0,45,0.00,,---,0.00,VWS V14.01,2013-04-04 02:23:00,
2013-04-03 22:24:00,43.0,23.1,30.47,NNE,28,2.2,2.2,45,0.00,,---,0.00,VWS V14.01,2013-04-04 02:24:00,
2013-04-03 22:25:00,43.0,23.1,30.47,NNE,20,2.2,2.2,45,0.00,,---,0.00,VWS V14.01,2013-04-04 02:25:00,
2013-04-03 22:27:00,43.0,23.1,30.47,NNE,18,0.0,0.0,45,0.00,,---,0.00,VWS V14.01,2013-04-04 02:27:00,
2013-04-03 22:28:00,43.0,23.1,30.47,NNE,18,0.0,0.0,45,0.00,,---,0.00,VWS V14.01,2013-04-04 02:28:00,
2013-04-03 22:29:00,43.0,23.1,30.47,North,357,0.0,0.0,45,0.00,,---,0.00,VWS V14.01,2013-04-04 02:29:00,
2013-04-03 22:30:00,43.2,23.3,30.47,North,353,0.0,0.0,45,0.00,,---,0.00,VWS V14.01,2013-04-04 02:30:00,
2013-04-03 22:32:00,43.2,23.3,30.47,North,353,0.0,0.0,45,0.00,,---,0.00,VWS V14.01,2013-04-04 02:32:00,
2013-04-03 22:33:00,43.2,23.3,30.47,North,0,0.0,0.0,45,0.00,,---,0.00,VWS V14.01,2013-04-04 02:33:00,
2013-04-03 22:34:00,43.2,23.3,30.47,North,0,0.0,0.0,45,0.00,,---,0.00,VWS V14.01,2013-04-04 02:34:00,
2013-04-03 22:35:00,43.2,23.3,30.47,North,0,0.0,0.0,45,0.00,,---,0.00,VWS V14.01,2013-04-04 02:35:00,
2013-04-03 22:38:00,43.2,23.3,30.47,North,0,0.0,0.0,45,0.00,,---,0.00,VWS V14.01,2013-04-04 02:38:00,
2013-04-03 22:39:00,43.2,23.3,30.47,North,0,0.0,0.0,45,0.00,,---,0.00,VWS V14.01,2013-04-04 02:39:00,
2013-04-03 22:41:00,43.2,23.3,30.47,North,357,0.0,0.0,45,0.00,,---,0.00,VWS V14.01,2013-04-04 02:41:00,
2013-04-03 22:43:00,43.2,23.3,30.47,NNE,23,0.0,0.0,45,0.00,,---,0.00,VWS V14.01,2013-04-04 02:43:00,
2013-04-03 22:44:00,43.2,23.3,30.47,NNE,18,0.0,0.0,45,0.00,,---,0.00,VWS V14.01,2013-04-04 02:44:00,
2013-04-03 22:46:00,43.2,23.3,30.47,NNE,18,0.0,0.0,45,0.00,,---,0.00,VWS V14.01,2013-04-04 02:46:00,
2013-04-03 22:48:00,43.3,22.9,30.47,NNE,18,0.0,0.0,44,0.00,,---,0.00,VWS V14.01,2013-04-04 02:48:00,
2013-04-03 22:50:00,43.3,22.9,30.47,NNE,18,0.0,0.0,44,0.00,,---,0.00,VWS V14.01,2013-04-04 02:50:00,
2013-04-03 22:51:00,43.3,22.9,30.47,NNE,18,0.0,0.0,44,0.00,,---,0.00,VWS V14.01,2013-04-04 02:51:00,
2013-04-03 22:53:00,43.3,22.9,30.47,NNE,18,0.0,0.0,44,0.00,,---,0.00,VWS V14.01,2013-04-04 02:53:00,
2013-04-03 22:55:00,43.3,22.9,30.47,North,7,0.0,0.0,44,0.00,,---,0.00,VWS V14.01,2013-04-04 02:55:00,
2013-04-03 22:56:00,43.3,22.9,30.47,NW,324,0.0,0.0,44,0.00,,---,0.00,VWS V14.01,2013-04-04 02:56:00,
2013-04-03 22:58:00,43.2,22.7,30.47,NW,324,0.0,0.0,44,0.00,,---,0.00,VWS V14.01,2013-04-04 02:58:00,
2013-04-03 23:00:00,43.2,22.7,30.47,NNW,342,0.0,0.0,44,0.00,,---,0.00,VWS V14.01,2013-04-04 03:00:00,
2013-04-03 23:01:00,43.2,22.7,30.47,NNW,342,0.0,0.0,44,0.00,,---,0.00,VWS V14.01,2013-04-04 03:01:00,
2013-04-03 23:03:00,43.2,22.7,30.47,NNW,342,0.0,0.0,44,0.00,,---,0.00,VWS V14.01,2013-04-04 03:03:00,
2013-04-03 23:05:00,43.2,22.7,30.47,North,350,0.0,0.0,44,0.00,,---,0.00,VWS V14.01,2013-04-04 03:05:00,
2013-04-03 23:07:00,43.2,22.7,30.47,North,353,0.0,0.0,44,0.00,,---,0.00,VWS V14.01,2013-04-04 03:07:00,
2013-04-03 23:09:00,43.2,22.7,30.47,North,353,0.0,0.0,44,0.00,,---,0.00,VWS V14.01,2013-04-04 03:09:00,
2013-04-03 23:10:00,43.2,22.7,30.47,North,353,0.0,0.0,44,0.00,,---,0.00,VWS V14.01,2013-04-04 03:10:00,
2013-04-03 23:12:00,43.0,22.6,30.47,North,353,0.0,0.0,44,0.00,,---,0.00,VWS V14.01,2013-04-04 03:12:00,
2013-04-03 23:14:00,43.0,22.6,30.47,North,353,0.0,0.0,44,0.00,,---,0.00,VWS V14.01,2013-04-04 03:14:00,
2013-04-03 23:15:00,43.0,22.6,30.47,NNW,343,0.0,0.0,44,0.00,,---,0.00,VWS V14.01,2013-04-04 03:15:00,
2013-04-03 23:17:00,43.0,22.6,30.47,NNW,343,0.0,0.0,44,0.00,,---,0.00,VWS V14.01,2013-04-04 03:17:00,
2013-04-03 23:19:00,43.0,22.6,30.47,NNW,330,0.0,0.0,44,0.00,,---,0.00,VWS V14.01,2013-04-04 03:19:00,
2013-04-03 23:20:00,43.0,22.6,30.47,NNW,330,0.0,0.0,44,0.00,,---,0.00,VWS V14.01,2013-04-04 03:20:00,
2013-04-03 23:22:00,42.8,22.4,30.47,NNW,337,0.0,0.0,44,0.00,,---,0.00,VWS V14.01,2013-04-04 03:22:00,
2013-04-03 23:24:00,42.8,22.4,30.47,NNW,337,0.0,0.0,44,0.00,,---,0.00,VWS V14.01,2013-04-04 03:24:00,
2013-04-03 23:25:00,42.8,22.4,30.47,NNW,337,0.0,0.0,44,0.00,,---,0.00,VWS V14.01,2013-04-04 03:25:00,
2013-04-03 23:27:00,42.6,22.2,30.47,NNW,337,0.0,0.0,44,0.00,,---,0.00,VWS V14.01,2013-04-04 03:27:00,
2013-04-03 23:29:00,42.6,22.2,30.47,NNW,337,0.0,0.0,44,0.00,,---,0.00,VWS V14.01,2013-04-04 03:29:00,
2013-04-03 23:30:00,42.6,22.2,30.47,North,357,0.0,0.0,44,0.00,,---,0.00,VWS V14.01,2013-04-04 03:30:00,
2013-04-03 23:32:00,42.6,22.2,30.47,NNW,328,0.0,0.0,44,0.00,,---,0.00,VWS V14.01,2013-04-04 03:32:00,
2013-04-03 23:34:00,42.6,22.2,30.47,NNW,333,0.0,0.0,44,0.00,,---,0.00,VWS V14.01,2013-04-04 03:34:00,
2013-04-03 23:35:00,42.6,22.2,30.47,NNW,333,0.0,0.0,44,0.00,,---,0.00,VWS V14.01,2013-04-04 03:35:00,
2013-04-03 23:37:00,42.6,22.2,30.47,NNW,334,0.0,0.0,44,0.00,,---,0.00,VWS V14.01,2013-04-04 03:37:00,
2013-04-03 23:39:00,41.9,22.1,30.47,NNW,334,0.0,0.0,45,0.00,,---,0.00,VWS V14.01,2013-04-04 03:39:00,
2013-04-03 23:40:00,41.9,22.1,30.47,NNW,334,0.0,0.0,45,0.00,,---,0.00,VWS V14.01,2013-04-04 03:40:00,
2013-04-03 23:42:00,41.9,22.1,30.47,NNW,327,2.2,2.2,45,0.00,,---,0.00,VWS V14.01,2013-04-04 03:42:00,
2013-04-03 23:44:00,41.9,22.1,30.47,NNW,342,3.1,3.1,45,0.00,,---,0.00,VWS V14.01,2013-04-04 03:44:00,
2013-04-03 23:46:00,41.9,22.6,30.47,North,349,2.7,2.7,46,0.00,,---,0.00,VWS V14.01,2013-04-04 03:46:00,
2013-04-03 23:47:00,41.9,22.6,30.47,North,357,2.2,2.7,46,0.00,,---,0.00,VWS V14.01,2013-04-04 03:47:00,
2013-04-03 23:49:00,41.9,22.6,30.47,NNW,338,2.2,2.2,46,0.00,,---,0.00,VWS V14.01,2013-04-04 03:49:00,
2013-04-03 23:51:00,41.9,22.6,30.47,NNW,331,3.1,3.1,46,0.00,,---,0.00,VWS V14.01,2013-04-04 03:51:00,
2013-04-03 23:53:00,41.9,22.6,30.47,North,353,2.2,3.1,46,0.00,,---,0.00,VWS V14.01,2013-04-04 03:53:00,
2013-04-03 23:55:00,41.9,22.6,30.47,North,1,3.6,3.6,46,0.00,,---,0.00,VWS V14.01,2013-04-04 03:55:00,
2013-04-03 23:56:00,41.9,22.6,30.47,NNW,338,0.0,3.6,46,0.00,,---,0.00,VWS V14.01,2013-04-04 03:56:00,
2013-04-03 23:58:00,41.9,22.6,30.47,NNW,333,2.2,2.2,46,0.00,,---,0.00,VWS V14.01,2013-04-04 03:58:00,